<?xml version="1.0" encoding="UTF-8" standalone="no" ?>
<gpx xmlns="http://www.topografix.com/GPX/1/1" xmlns:xsi="http://www.w3.org/2001/XMLSchema-instance" xsi:schemaLocation="http://www.topografix.com/GPX/1/1 http://www.topografix.com/GPX/1/1/gpx.xsd" version="1.1" creator="VisuGPX - https://www.visugpx.com">
  <metadata>
    <name>virrolet à Pollionnay</name>
    <desc><![CDATA[La cyclOcrampOnnée de fin d\'année: JF, ericT Xtian]]></desc>
  </metadata>
  <trk>
    <name><![CDATA[ACTIVE LOG]]></name>
    <trkseg>
      <trkpt lat="45.76371" lon="4.65904">
        <ele>122.2247314</ele>
        <time>2011-12-29T12:27:06Z</time>
      </trkpt>
      <trkpt lat="45.76389" lon="4.65895">
        <ele>122.2247314</ele>
        <time>2011-12-29T12:27:48Z</time>
      </trkpt>
      <trkpt lat="45.76405" lon="4.65889">
        <ele>122.2247314</ele>
        <time>2011-12-29T12:29:10Z</time>
      </trkpt>
      <trkpt lat="45.76546" lon="4.66005">
        <ele>429.8465576</ele>
        <time>2011-12-29T12:29:45Z</time>
      </trkpt>
      <trkpt lat="45.76547" lon="4.66008">
        <ele>429.8465576</ele>
        <time>2011-12-29T12:30:07Z</time>
      </trkpt>
      <trkpt lat="45.76547" lon="4.66008">
        <ele>430.8079834</ele>
        <time>2011-12-29T12:30:30Z</time>
      </trkpt>
      <trkpt lat="45.76548" lon="4.66006">
        <ele>429.8465576</ele>
        <time>2011-12-29T12:30:39Z</time>
      </trkpt>
      <trkpt lat="45.76547" lon="4.66006">
        <ele>429.8465576</ele>
        <time>2011-12-29T12:30:50Z</time>
      </trkpt>
      <trkpt lat="45.76549" lon="4.65997">
        <ele>429.3659668</ele>
        <time>2011-12-29T12:31:02Z</time>
      </trkpt>
      <trkpt lat="45.76533" lon="4.65991">
        <ele>429.8465576</ele>
        <time>2011-12-29T12:31:10Z</time>
      </trkpt>
      <trkpt lat="45.76543" lon="4.65985">
        <ele>430.8079834</ele>
        <time>2011-12-29T12:31:15Z</time>
      </trkpt>
      <trkpt lat="45.76592" lon="4.65976">
        <ele>434.6533203</ele>
        <time>2011-12-29T12:31:36Z</time>
      </trkpt>
      <trkpt lat="45.7664" lon="4.65974">
        <ele>437.5371094</ele>
        <time>2011-12-29T12:31:56Z</time>
      </trkpt>
      <trkpt lat="45.76668" lon="4.65986">
        <ele>438.979126</ele>
        <time>2011-12-29T12:32:09Z</time>
      </trkpt>
      <trkpt lat="45.76677" lon="4.65985">
        <ele>439.9404297</ele>
        <time>2011-12-29T12:32:13Z</time>
      </trkpt>
      <trkpt lat="45.76716" lon="4.65981">
        <ele>443.3050537</ele>
        <time>2011-12-29T12:32:30Z</time>
      </trkpt>
      <trkpt lat="45.76762" lon="4.65975">
        <ele>447.6309814</ele>
        <time>2011-12-29T12:32:51Z</time>
      </trkpt>
      <trkpt lat="45.76795" lon="4.65947">
        <ele>451.9570313</ele>
        <time>2011-12-29T12:33:10Z</time>
      </trkpt>
      <trkpt lat="45.76817" lon="4.65879">
        <ele>455.3215332</ele>
        <time>2011-12-29T12:33:34Z</time>
      </trkpt>
      <trkpt lat="45.76808" lon="4.6581">
        <ele>455.8022461</ele>
        <time>2011-12-29T12:33:53Z</time>
      </trkpt>
      <trkpt lat="45.76784" lon="4.65702">
        <ele>457.2442627</ele>
        <time>2011-12-29T12:34:18Z</time>
      </trkpt>
      <trkpt lat="45.76762" lon="4.65629">
        <ele>460.1281738</ele>
        <time>2011-12-29T12:34:38Z</time>
      </trkpt>
      <trkpt lat="45.76741" lon="4.65561">
        <ele>463.012085</ele>
        <time>2011-12-29T12:34:58Z</time>
      </trkpt>
      <trkpt lat="45.76726" lon="4.65504">
        <ele>467.3381348</ele>
        <time>2011-12-29T12:35:16Z</time>
      </trkpt>
      <trkpt lat="45.76701" lon="4.65426">
        <ele>471.1833496</ele>
        <time>2011-12-29T12:35:41Z</time>
      </trkpt>
      <trkpt lat="45.76688" lon="4.65375">
        <ele>472.1446533</ele>
        <time>2011-12-29T12:35:58Z</time>
      </trkpt>
      <trkpt lat="45.76679" lon="4.65286">
        <ele>473.5866699</ele>
        <time>2011-12-29T12:36:20Z</time>
      </trkpt>
      <trkpt lat="45.76673" lon="4.65197">
        <ele>476.4705811</ele>
        <time>2011-12-29T12:36:40Z</time>
      </trkpt>
      <trkpt lat="45.76669" lon="4.65147">
        <ele>477.9124756</ele>
        <time>2011-12-29T12:36:54Z</time>
      </trkpt>
      <trkpt lat="45.76661" lon="4.6508">
        <ele>482.2385254</ele>
        <time>2011-12-29T12:37:16Z</time>
      </trkpt>
      <trkpt lat="45.76657" lon="4.65032">
        <ele>484.6418457</ele>
        <time>2011-12-29T12:37:33Z</time>
      </trkpt>
      <trkpt lat="45.76651" lon="4.64989">
        <ele>487.5256348</ele>
        <time>2011-12-29T12:37:48Z</time>
      </trkpt>
      <trkpt lat="45.76652" lon="4.64949">
        <ele>492.3323975</ele>
        <time>2011-12-29T12:38:04Z</time>
      </trkpt>
      <trkpt lat="45.76647" lon="4.64909">
        <ele>496.1777344</ele>
        <time>2011-12-29T12:38:22Z</time>
      </trkpt>
      <trkpt lat="45.76645" lon="4.6486">
        <ele>501.4648438</ele>
        <time>2011-12-29T12:38:45Z</time>
      </trkpt>
      <trkpt lat="45.76644" lon="4.64827">
        <ele>505.3101807</ele>
        <time>2011-12-29T12:39:00Z</time>
      </trkpt>
      <trkpt lat="45.76641" lon="4.64781">
        <ele>511.0780029</ele>
        <time>2011-12-29T12:39:20Z</time>
      </trkpt>
      <trkpt lat="45.76632" lon="4.64745">
        <ele>514.442627</ele>
        <time>2011-12-29T12:39:39Z</time>
      </trkpt>
      <trkpt lat="45.76622" lon="4.64711">
        <ele>516.3652344</ele>
        <time>2011-12-29T12:40:00Z</time>
      </trkpt>
      <trkpt lat="45.76615" lon="4.64679">
        <ele>517.3266602</ele>
        <time>2011-12-29T12:40:15Z</time>
      </trkpt>
      <trkpt lat="45.76606" lon="4.64643">
        <ele>520.6912842</ele>
        <time>2011-12-29T12:40:33Z</time>
      </trkpt>
      <trkpt lat="45.76593" lon="4.64606">
        <ele>522.6138916</ele>
        <time>2011-12-29T12:40:50Z</time>
      </trkpt>
      <trkpt lat="45.76577" lon="4.64559">
        <ele>527.4204102</ele>
        <time>2011-12-29T12:41:12Z</time>
      </trkpt>
      <trkpt lat="45.76568" lon="4.6453">
        <ele>529.8237305</ele>
        <time>2011-12-29T12:41:27Z</time>
      </trkpt>
      <trkpt lat="45.7656" lon="4.64493">
        <ele>532.7077637</ele>
        <time>2011-12-29T12:41:44Z</time>
      </trkpt>
      <trkpt lat="45.76551" lon="4.64451">
        <ele>537.5142822</ele>
        <time>2011-12-29T12:42:04Z</time>
      </trkpt>
      <trkpt lat="45.76545" lon="4.64419">
        <ele>539.4368896</ele>
        <time>2011-12-29T12:42:21Z</time>
      </trkpt>
      <trkpt lat="45.76532" lon="4.64391">
        <ele>544.2436523</ele>
        <time>2011-12-29T12:42:38Z</time>
      </trkpt>
      <trkpt lat="45.76526" lon="4.64362">
        <ele>550.0114746</ele>
        <time>2011-12-29T12:42:55Z</time>
      </trkpt>
      <trkpt lat="45.76507" lon="4.64343">
        <ele>556.2600098</ele>
        <time>2011-12-29T12:43:14Z</time>
      </trkpt>
      <trkpt lat="45.7648" lon="4.64335">
        <ele>559.144043</ele>
        <time>2011-12-29T12:43:34Z</time>
      </trkpt>
      <trkpt lat="45.76458" lon="4.64315">
        <ele>563.9504395</ele>
        <time>2011-12-29T12:43:53Z</time>
      </trkpt>
      <trkpt lat="45.76428" lon="4.64296">
        <ele>571.6408691</ele>
        <time>2011-12-29T12:44:15Z</time>
      </trkpt>
      <trkpt lat="45.7641" lon="4.64284">
        <ele>574.0444336</ele>
        <time>2011-12-29T12:44:30Z</time>
      </trkpt>
      <trkpt lat="45.76395" lon="4.64258">
        <ele>579.8122559</ele>
        <time>2011-12-29T12:44:49Z</time>
      </trkpt>
      <trkpt lat="45.76394" lon="4.64239">
        <ele>582.6962891</ele>
        <time>2011-12-29T12:45:00Z</time>
      </trkpt>
      <trkpt lat="45.76381" lon="4.64213">
        <ele>589.4255371</ele>
        <time>2011-12-29T12:45:20Z</time>
      </trkpt>
      <trkpt lat="45.76368" lon="4.64188">
        <ele>593.270752</ele>
        <time>2011-12-29T12:45:39Z</time>
      </trkpt>
      <trkpt lat="45.76357" lon="4.64155">
        <ele>596.1547852</ele>
        <time>2011-12-29T12:46:03Z</time>
      </trkpt>
      <trkpt lat="45.76349" lon="4.64143">
        <ele>595.6740723</ele>
        <time>2011-12-29T12:46:14Z</time>
      </trkpt>
      <trkpt lat="45.76348" lon="4.64138">
        <ele>596.1547852</ele>
        <time>2011-12-29T12:46:17Z</time>
      </trkpt>
      <trkpt lat="45.76349" lon="4.64127">
        <ele>597.5966797</ele>
        <time>2011-12-29T12:46:21Z</time>
      </trkpt>
      <trkpt lat="45.76346" lon="4.64077">
        <ele>600.9611816</ele>
        <time>2011-12-29T12:46:43Z</time>
      </trkpt>
      <trkpt lat="45.76339" lon="4.6405">
        <ele>602.4030762</ele>
        <time>2011-12-29T12:46:59Z</time>
      </trkpt>
      <trkpt lat="45.76331" lon="4.64015">
        <ele>608.1713867</ele>
        <time>2011-12-29T12:47:21Z</time>
      </trkpt>
      <trkpt lat="45.76322" lon="4.63976">
        <ele>614.9003906</ele>
        <time>2011-12-29T12:47:45Z</time>
      </trkpt>
      <trkpt lat="45.7632" lon="4.63962">
        <ele>621.1491699</ele>
        <time>2011-12-29T12:47:57Z</time>
      </trkpt>
      <trkpt lat="45.7632" lon="4.63934">
        <ele>625.4748535</ele>
        <time>2011-12-29T12:48:12Z</time>
      </trkpt>
      <trkpt lat="45.76324" lon="4.63922">
        <ele>625.9555664</ele>
        <time>2011-12-29T12:48:20Z</time>
      </trkpt>
      <trkpt lat="45.76317" lon="4.63877">
        <ele>630.2814941</ele>
        <time>2011-12-29T12:48:43Z</time>
      </trkpt>
      <trkpt lat="45.76295" lon="4.63846">
        <ele>638.4528809</ele>
        <time>2011-12-29T12:49:04Z</time>
      </trkpt>
      <trkpt lat="45.76285" lon="4.63827">
        <ele>650.949707</ele>
        <time>2011-12-29T12:49:32Z</time>
      </trkpt>
      <trkpt lat="45.76279" lon="4.63824">
        <ele>653.8339844</ele>
        <time>2011-12-29T12:50:59Z</time>
      </trkpt>
      <trkpt lat="45.76279" lon="4.63821">
        <ele>653.3532715</ele>
        <time>2011-12-29T12:51:01Z</time>
      </trkpt>
      <trkpt lat="45.76264" lon="4.63781">
        <ele>654.3146973</ele>
        <time>2011-12-29T12:51:24Z</time>
      </trkpt>
      <trkpt lat="45.76252" lon="4.63749">
        <ele>653.8339844</ele>
        <time>2011-12-29T12:51:45Z</time>
      </trkpt>
      <trkpt lat="45.76244" lon="4.63709">
        <ele>660.0822754</ele>
        <time>2011-12-29T12:52:08Z</time>
      </trkpt>
      <trkpt lat="45.76241" lon="4.6367">
        <ele>662.4855957</ele>
        <time>2011-12-29T12:52:30Z</time>
      </trkpt>
      <trkpt lat="45.7624" lon="4.63667">
        <ele>662.4855957</ele>
        <time>2011-12-29T12:52:32Z</time>
      </trkpt>
      <trkpt lat="45.76237" lon="4.63627">
        <ele>667.7727051</ele>
        <time>2011-12-29T12:52:57Z</time>
      </trkpt>
      <trkpt lat="45.76237" lon="4.63593">
        <ele>674.0214844</ele>
        <time>2011-12-29T12:53:20Z</time>
      </trkpt>
      <trkpt lat="45.76229" lon="4.63553">
        <ele>678.3474121</ele>
        <time>2011-12-29T12:53:43Z</time>
      </trkpt>
      <trkpt lat="45.76219" lon="4.63503">
        <ele>679.7893066</ele>
        <time>2011-12-29T12:54:06Z</time>
      </trkpt>
      <trkpt lat="45.76216" lon="4.6345">
        <ele>684.1154785</ele>
        <time>2011-12-29T12:54:30Z</time>
      </trkpt>
      <trkpt lat="45.76219" lon="4.63413">
        <ele>684.1154785</ele>
        <time>2011-12-29T12:54:48Z</time>
      </trkpt>
      <trkpt lat="45.76222" lon="4.63372">
        <ele>687.9606934</ele>
        <time>2011-12-29T12:55:10Z</time>
      </trkpt>
      <trkpt lat="45.76222" lon="4.63336">
        <ele>690.8444824</ele>
        <time>2011-12-29T12:55:29Z</time>
      </trkpt>
      <trkpt lat="45.76222" lon="4.63319">
        <ele>695.1704102</ele>
        <time>2011-12-29T12:55:39Z</time>
      </trkpt>
      <trkpt lat="45.76228" lon="4.63319">
        <ele>697.0930176</ele>
        <time>2011-12-29T12:55:46Z</time>
      </trkpt>
      <trkpt lat="45.76233" lon="4.63326">
        <ele>698.5349121</ele>
        <time>2011-12-29T12:55:52Z</time>
      </trkpt>
      <trkpt lat="45.76236" lon="4.63321">
        <ele>698.5349121</ele>
        <time>2011-12-29T12:55:56Z</time>
      </trkpt>
      <trkpt lat="45.76239" lon="4.63312">
        <ele>699.9770508</ele>
        <time>2011-12-29T12:56:02Z</time>
      </trkpt>
      <trkpt lat="45.76246" lon="4.63291">
        <ele>703.3417969</ele>
        <time>2011-12-29T12:56:17Z</time>
      </trkpt>
      <trkpt lat="45.76242" lon="4.63258">
        <ele>704.3032227</ele>
        <time>2011-12-29T12:56:34Z</time>
      </trkpt>
      <trkpt lat="45.76241" lon="4.63219">
        <ele>705.7451172</ele>
        <time>2011-12-29T12:56:53Z</time>
      </trkpt>
      <trkpt lat="45.76241" lon="4.63215">
        <ele>705.7451172</ele>
        <time>2011-12-29T12:56:55Z</time>
      </trkpt>
      <trkpt lat="45.76237" lon="4.63198">
        <ele>706.7062988</ele>
        <time>2011-12-29T12:57:06Z</time>
      </trkpt>
      <trkpt lat="45.76252" lon="4.63171">
        <ele>708.6289063</ele>
        <time>2011-12-29T12:57:23Z</time>
      </trkpt>
      <trkpt lat="45.76264" lon="4.63167">
        <ele>711.9936523</ele>
        <time>2011-12-29T12:57:34Z</time>
      </trkpt>
      <trkpt lat="45.7627" lon="4.63168">
        <ele>712.954834</ele>
        <time>2011-12-29T12:57:39Z</time>
      </trkpt>
      <trkpt lat="45.76274" lon="4.63165">
        <ele>713.4355469</ele>
        <time>2011-12-29T12:57:43Z</time>
      </trkpt>
      <trkpt lat="45.76297" lon="4.63139">
        <ele>719.2036133</ele>
        <time>2011-12-29T12:58:06Z</time>
      </trkpt>
      <trkpt lat="45.76319" lon="4.63113">
        <ele>729.777832</ele>
        <time>2011-12-29T12:58:28Z</time>
      </trkpt>
      <trkpt lat="45.76325" lon="4.63074">
        <ele>730.2585449</ele>
        <time>2011-12-29T12:58:45Z</time>
      </trkpt>
      <trkpt lat="45.76304" lon="4.62974">
        <ele>728.8166504</ele>
        <time>2011-12-29T12:59:06Z</time>
      </trkpt>
      <trkpt lat="45.76292" lon="4.62945">
        <ele>728.8166504</ele>
        <time>2011-12-29T12:59:16Z</time>
      </trkpt>
      <trkpt lat="45.76287" lon="4.62934">
        <ele>728.3359375</ele>
        <time>2011-12-29T12:59:27Z</time>
      </trkpt>
      <trkpt lat="45.76286" lon="4.62918">
        <ele>725.9326172</ele>
        <time>2011-12-29T12:59:40Z</time>
      </trkpt>
      <trkpt lat="45.7629" lon="4.62908">
        <ele>726.894043</ele>
        <time>2011-12-29T12:59:45Z</time>
      </trkpt>
      <trkpt lat="45.76282" lon="4.62888">
        <ele>725.4519043</ele>
        <time>2011-12-29T12:59:52Z</time>
      </trkpt>
      <trkpt lat="45.7622" lon="4.62864">
        <ele>726.4133301</ele>
        <time>2011-12-29T13:00:16Z</time>
      </trkpt>
      <trkpt lat="45.7617" lon="4.62851">
        <ele>727.3747559</ele>
        <time>2011-12-29T13:00:35Z</time>
      </trkpt>
      <trkpt lat="45.76158" lon="4.62851">
        <ele>727.8552246</ele>
        <time>2011-12-29T13:00:38Z</time>
      </trkpt>
      <trkpt lat="45.76123" lon="4.62914">
        <ele>727.8552246</ele>
        <time>2011-12-29T13:00:46Z</time>
      </trkpt>
      <trkpt lat="45.76107" lon="4.62952">
        <ele>726.4133301</ele>
        <time>2011-12-29T13:00:51Z</time>
      </trkpt>
      <trkpt lat="45.76095" lon="4.62983">
        <ele>724.9714355</ele>
        <time>2011-12-29T13:00:56Z</time>
      </trkpt>
      <trkpt lat="45.76056" lon="4.63081">
        <ele>723.0488281</ele>
        <time>2011-12-29T13:01:17Z</time>
      </trkpt>
      <trkpt lat="45.76023" lon="4.63102">
        <ele>722.0874023</ele>
        <time>2011-12-29T13:01:30Z</time>
      </trkpt>
      <trkpt lat="45.75993" lon="4.63089">
        <ele>721.6066895</ele>
        <time>2011-12-29T13:01:47Z</time>
      </trkpt>
      <trkpt lat="45.75966" lon="4.63069">
        <ele>723.0488281</ele>
        <time>2011-12-29T13:02:08Z</time>
      </trkpt>
      <trkpt lat="45.7592" lon="4.63031">
        <ele>724.9714355</ele>
        <time>2011-12-29T13:02:30Z</time>
      </trkpt>
      <trkpt lat="45.75901" lon="4.63015">
        <ele>725.4519043</ele>
        <time>2011-12-29T13:02:37Z</time>
      </trkpt>
      <trkpt lat="45.75873" lon="4.62996">
        <ele>724.0100098</ele>
        <time>2011-12-29T13:02:43Z</time>
      </trkpt>
      <trkpt lat="45.75851" lon="4.62975">
        <ele>723.0488281</ele>
        <time>2011-12-29T13:02:48Z</time>
      </trkpt>
      <trkpt lat="45.75841" lon="4.62979">
        <ele>724.9714355</ele>
        <time>2011-12-29T13:02:52Z</time>
      </trkpt>
      <trkpt lat="45.75833" lon="4.6296">
        <ele>725.4519043</ele>
        <time>2011-12-29T13:02:55Z</time>
      </trkpt>
      <trkpt lat="45.75802" lon="4.62948">
        <ele>725.9326172</ele>
        <time>2011-12-29T13:03:01Z</time>
      </trkpt>
      <trkpt lat="45.75786" lon="4.62942">
        <ele>725.9326172</ele>
        <time>2011-12-29T13:03:04Z</time>
      </trkpt>
      <trkpt lat="45.75761" lon="4.62936">
        <ele>725.9326172</ele>
        <time>2011-12-29T13:03:08Z</time>
      </trkpt>
      <trkpt lat="45.75622" lon="4.62845">
        <ele>724.0100098</ele>
        <time>2011-12-29T13:03:33Z</time>
      </trkpt>
      <trkpt lat="45.75541" lon="4.62837">
        <ele>719.2036133</ele>
        <time>2011-12-29T13:03:46Z</time>
      </trkpt>
      <trkpt lat="45.75529" lon="4.62841">
        <ele>717.7614746</ele>
        <time>2011-12-29T13:03:48Z</time>
      </trkpt>
      <trkpt lat="45.75535" lon="4.62839">
        <ele>711.5129395</ele>
        <time>2011-12-29T13:03:57Z</time>
      </trkpt>
      <trkpt lat="45.7555" lon="4.62834">
        <ele>706.7062988</ele>
        <time>2011-12-29T13:04:14Z</time>
      </trkpt>
      <trkpt lat="45.75551" lon="4.62668">
        <ele>705.2644043</ele>
        <time>2011-12-29T13:04:30Z</time>
      </trkpt>
      <trkpt lat="45.7557" lon="4.62628">
        <ele>701.8999023</ele>
        <time>2011-12-29T13:04:50Z</time>
      </trkpt>
      <trkpt lat="45.75597" lon="4.62563">
        <ele>709.590332</ele>
        <time>2011-12-29T13:05:23Z</time>
      </trkpt>
      <trkpt lat="45.75605" lon="4.62515">
        <ele>710.5515137</ele>
        <time>2011-12-29T13:05:46Z</time>
      </trkpt>
      <trkpt lat="45.75609" lon="4.62458">
        <ele>711.9936523</ele>
        <time>2011-12-29T13:06:12Z</time>
      </trkpt>
      <trkpt lat="45.75612" lon="4.62386">
        <ele>716.3195801</ele>
        <time>2011-12-29T13:06:40Z</time>
      </trkpt>
      <trkpt lat="45.7561" lon="4.62322">
        <ele>722.5681152</ele>
        <time>2011-12-29T13:07:01Z</time>
      </trkpt>
      <trkpt lat="45.75606" lon="4.62253">
        <ele>725.4519043</ele>
        <time>2011-12-29T13:07:23Z</time>
      </trkpt>
      <trkpt lat="45.75604" lon="4.62191">
        <ele>729.2971191</ele>
        <time>2011-12-29T13:07:45Z</time>
      </trkpt>
      <trkpt lat="45.75604" lon="4.62129">
        <ele>732.6621094</ele>
        <time>2011-12-29T13:08:08Z</time>
      </trkpt>
      <trkpt lat="45.75606" lon="4.62028">
        <ele>738.9106445</ele>
        <time>2011-12-29T13:08:42Z</time>
      </trkpt>
      <trkpt lat="45.75606" lon="4.61964">
        <ele>741.3137207</ele>
        <time>2011-12-29T13:09:03Z</time>
      </trkpt>
      <trkpt lat="45.75605" lon="4.61896">
        <ele>741.3137207</ele>
        <time>2011-12-29T13:09:22Z</time>
      </trkpt>
      <trkpt lat="45.75606" lon="4.61826">
        <ele>746.1203613</ele>
        <time>2011-12-29T13:09:44Z</time>
      </trkpt>
      <trkpt lat="45.75621" lon="4.61778">
        <ele>748.0432129</ele>
        <time>2011-12-29T13:10:01Z</time>
      </trkpt>
      <trkpt lat="45.75623" lon="4.61731">
        <ele>748.5236816</ele>
        <time>2011-12-29T13:10:13Z</time>
      </trkpt>
      <trkpt lat="45.75623" lon="4.61641">
        <ele>749.4851074</ele>
        <time>2011-12-29T13:10:30Z</time>
      </trkpt>
      <trkpt lat="45.75618" lon="4.61529">
        <ele>749.9658203</ele>
        <time>2011-12-29T13:10:47Z</time>
      </trkpt>
      <trkpt lat="45.7559" lon="4.61443">
        <ele>750.4465332</ele>
        <time>2011-12-29T13:11:03Z</time>
      </trkpt>
      <trkpt lat="45.75541" lon="4.61331">
        <ele>743.717041</ele>
        <time>2011-12-29T13:11:21Z</time>
      </trkpt>
      <trkpt lat="45.75542" lon="4.61317">
        <ele>742.7558594</ele>
        <time>2011-12-29T13:11:22Z</time>
      </trkpt>
      <trkpt lat="45.75544" lon="4.61289">
        <ele>740.8330078</ele>
        <time>2011-12-29T13:11:24Z</time>
      </trkpt>
      <trkpt lat="45.7551" lon="4.61357">
        <ele>738.4299316</ele>
        <time>2011-12-29T13:11:28Z</time>
      </trkpt>
      <trkpt lat="45.75252" lon="4.6112">
        <ele>730.2585449</ele>
        <time>2011-12-29T13:12:15Z</time>
      </trkpt>
      <trkpt lat="45.75246" lon="4.61109">
        <ele>729.777832</ele>
        <time>2011-12-29T13:12:18Z</time>
      </trkpt>
      <trkpt lat="45.75234" lon="4.61087">
        <ele>727.3747559</ele>
        <time>2011-12-29T13:12:30Z</time>
      </trkpt>
      <trkpt lat="45.75224" lon="4.61068">
        <ele>728.3359375</ele>
        <time>2011-12-29T13:12:40Z</time>
      </trkpt>
      <trkpt lat="45.75221" lon="4.61062">
        <ele>729.777832</ele>
        <time>2011-12-29T13:12:44Z</time>
      </trkpt>
      <trkpt lat="45.75221" lon="4.61062">
        <ele>732.1813965</ele>
        <time>2011-12-29T13:12:58Z</time>
      </trkpt>
      <trkpt lat="45.752" lon="4.61026">
        <ele>736.0266113</ele>
        <time>2011-12-29T13:13:18Z</time>
      </trkpt>
      <trkpt lat="45.75125" lon="4.60987">
        <ele>733.623291</ele>
        <time>2011-12-29T13:13:48Z</time>
      </trkpt>
      <trkpt lat="45.75104" lon="4.60985">
        <ele>734.1040039</ele>
        <time>2011-12-29T13:13:55Z</time>
      </trkpt>
      <trkpt lat="45.75106" lon="4.60892">
        <ele>734.1040039</ele>
        <time>2011-12-29T13:13:58Z</time>
      </trkpt>
      <trkpt lat="45.75089" lon="4.60795">
        <ele>734.1040039</ele>
        <time>2011-12-29T13:14:01Z</time>
      </trkpt>
      <trkpt lat="45.75088" lon="4.60795">
        <ele>734.1040039</ele>
        <time>2011-12-29T13:14:11Z</time>
      </trkpt>
      <trkpt lat="45.75075" lon="4.60795">
        <ele>719.6843262</ele>
        <time>2011-12-29T13:14:48Z</time>
      </trkpt>
      <trkpt lat="45.75056" lon="4.60795">
        <ele>713.9160156</ele>
        <time>2011-12-29T13:14:59Z</time>
      </trkpt>
      <trkpt lat="45.75032" lon="4.60796">
        <ele>711.0322266</ele>
        <time>2011-12-29T13:15:11Z</time>
      </trkpt>
      <trkpt lat="45.75016" lon="4.60792">
        <ele>706.7062988</ele>
        <time>2011-12-29T13:15:20Z</time>
      </trkpt>
      <trkpt lat="45.75007" lon="4.6079">
        <ele>706.7062988</ele>
        <time>2011-12-29T13:15:26Z</time>
      </trkpt>
      <trkpt lat="45.74989" lon="4.60781">
        <ele>708.6289063</ele>
        <time>2011-12-29T13:15:43Z</time>
      </trkpt>
      <trkpt lat="45.74972" lon="4.60773">
        <ele>711.0322266</ele>
        <time>2011-12-29T13:15:59Z</time>
      </trkpt>
      <trkpt lat="45.74904" lon="4.60819">
        <ele>710.0708008</ele>
        <time>2011-12-29T13:16:17Z</time>
      </trkpt>
      <trkpt lat="45.74897" lon="4.6084">
        <ele>713.4355469</ele>
        <time>2011-12-29T13:16:34Z</time>
      </trkpt>
      <trkpt lat="45.74888" lon="4.60858">
        <ele>713.4355469</ele>
        <time>2011-12-29T13:16:38Z</time>
      </trkpt>
      <trkpt lat="45.74886" lon="4.60874">
        <ele>712.954834</ele>
        <time>2011-12-29T13:16:45Z</time>
      </trkpt>
      <trkpt lat="45.74869" lon="4.60922">
        <ele>711.5129395</ele>
        <time>2011-12-29T13:17:02Z</time>
      </trkpt>
      <trkpt lat="45.74853" lon="4.60968">
        <ele>712.4741211</ele>
        <time>2011-12-29T13:17:23Z</time>
      </trkpt>
      <trkpt lat="45.74844" lon="4.60993">
        <ele>714.3967285</ele>
        <time>2011-12-29T13:17:37Z</time>
      </trkpt>
      <trkpt lat="45.74833" lon="4.6102">
        <ele>717.2810059</ele>
        <time>2011-12-29T13:17:52Z</time>
      </trkpt>
      <trkpt lat="45.74821" lon="4.61049">
        <ele>720.6455078</ele>
        <time>2011-12-29T13:18:10Z</time>
      </trkpt>
      <trkpt lat="45.74812" lon="4.61075">
        <ele>723.0488281</ele>
        <time>2011-12-29T13:18:24Z</time>
      </trkpt>
      <trkpt lat="45.74795" lon="4.61121">
        <ele>725.9326172</ele>
        <time>2011-12-29T13:18:47Z</time>
      </trkpt>
      <trkpt lat="45.74763" lon="4.6114">
        <ele>727.8552246</ele>
        <time>2011-12-29T13:19:03Z</time>
      </trkpt>
      <trkpt lat="45.74757" lon="4.61138">
        <ele>727.3747559</ele>
        <time>2011-12-29T13:19:07Z</time>
      </trkpt>
      <trkpt lat="45.74704" lon="4.61071">
        <ele>724.0100098</ele>
        <time>2011-12-29T13:19:25Z</time>
      </trkpt>
      <trkpt lat="45.74648" lon="4.60998">
        <ele>720.6455078</ele>
        <time>2011-12-29T13:19:41Z</time>
      </trkpt>
      <trkpt lat="45.74591" lon="4.6085">
        <ele>718.7229004</ele>
        <time>2011-12-29T13:20:05Z</time>
      </trkpt>
      <trkpt lat="45.74579" lon="4.60778">
        <ele>721.1262207</ele>
        <time>2011-12-29T13:20:26Z</time>
      </trkpt>
      <trkpt lat="45.74573" lon="4.60728">
        <ele>724.9714355</ele>
        <time>2011-12-29T13:20:47Z</time>
      </trkpt>
      <trkpt lat="45.74567" lon="4.60692">
        <ele>727.3747559</ele>
        <time>2011-12-29T13:21:13Z</time>
      </trkpt>
      <trkpt lat="45.74553" lon="4.60643">
        <ele>733.623291</ele>
        <time>2011-12-29T13:21:36Z</time>
      </trkpt>
      <trkpt lat="45.74447" lon="4.60681">
        <ele>737.4685059</ele>
        <time>2011-12-29T13:21:58Z</time>
      </trkpt>
      <trkpt lat="45.74422" lon="4.60663">
        <ele>740.8330078</ele>
        <time>2011-12-29T13:22:20Z</time>
      </trkpt>
      <trkpt lat="45.74393" lon="4.60638">
        <ele>748.0432129</ele>
        <time>2011-12-29T13:22:48Z</time>
      </trkpt>
      <trkpt lat="45.74364" lon="4.60621">
        <ele>752.3688965</ele>
        <time>2011-12-29T13:23:10Z</time>
      </trkpt>
      <trkpt lat="45.74344" lon="4.60604">
        <ele>754.7722168</ele>
        <time>2011-12-29T13:23:27Z</time>
      </trkpt>
      <trkpt lat="45.74322" lon="4.60588">
        <ele>757.1755371</ele>
        <time>2011-12-29T13:23:46Z</time>
      </trkpt>
      <trkpt lat="45.74321" lon="4.60585">
        <ele>760.5400391</ele>
        <time>2011-12-29T13:24:00Z</time>
      </trkpt>
      <trkpt lat="45.7432" lon="4.60584">
        <ele>761.020752</ele>
        <time>2011-12-29T13:24:08Z</time>
      </trkpt>
      <trkpt lat="45.74296" lon="4.60577">
        <ele>762.9433594</ele>
        <time>2011-12-29T13:24:28Z</time>
      </trkpt>
      <trkpt lat="45.74272" lon="4.60572">
        <ele>765.3469238</ele>
        <time>2011-12-29T13:24:48Z</time>
      </trkpt>
      <trkpt lat="45.74248" lon="4.60562">
        <ele>767.75</ele>
        <time>2011-12-29T13:25:10Z</time>
      </trkpt>
      <trkpt lat="45.74227" lon="4.60539">
        <ele>771.5952148</ele>
        <time>2011-12-29T13:25:29Z</time>
      </trkpt>
      <trkpt lat="45.74211" lon="4.60511">
        <ele>780.2473145</ele>
        <time>2011-12-29T13:25:50Z</time>
      </trkpt>
      <trkpt lat="45.74196" lon="4.6049">
        <ele>784.0925293</ele>
        <time>2011-12-29T13:26:06Z</time>
      </trkpt>
      <trkpt lat="45.74175" lon="4.60462">
        <ele>785.0539551</ele>
        <time>2011-12-29T13:26:25Z</time>
      </trkpt>
      <trkpt lat="45.74157" lon="4.60428">
        <ele>791.3022461</ele>
        <time>2011-12-29T13:26:49Z</time>
      </trkpt>
      <trkpt lat="45.74151" lon="4.60408">
        <ele>791.3022461</ele>
        <time>2011-12-29T13:27:00Z</time>
      </trkpt>
      <trkpt lat="45.74149" lon="4.60349">
        <ele>793.7055664</ele>
        <time>2011-12-29T13:27:23Z</time>
      </trkpt>
      <trkpt lat="45.74152" lon="4.60293">
        <ele>799.9543457</ele>
        <time>2011-12-29T13:27:46Z</time>
      </trkpt>
      <trkpt lat="45.74154" lon="4.60258">
        <ele>808.605957</ele>
        <time>2011-12-29T13:28:05Z</time>
      </trkpt>
      <trkpt lat="45.7412" lon="4.60294">
        <ele>810.0478516</ele>
        <time>2011-12-29T13:28:29Z</time>
      </trkpt>
      <trkpt lat="45.7408" lon="4.60338">
        <ele>814.3740234</ele>
        <time>2011-12-29T13:28:52Z</time>
      </trkpt>
      <trkpt lat="45.74049" lon="4.60368">
        <ele>820.1418457</ele>
        <time>2011-12-29T13:29:13Z</time>
      </trkpt>
      <trkpt lat="45.74043" lon="4.60368">
        <ele>822.0644531</ele>
        <time>2011-12-29T13:29:16Z</time>
      </trkpt>
      <trkpt lat="45.73974" lon="4.60323">
        <ele>823.0258789</ele>
        <time>2011-12-29T13:30:04Z</time>
      </trkpt>
      <trkpt lat="45.73946" lon="4.60306">
        <ele>822.545166</ele>
        <time>2011-12-29T13:30:23Z</time>
      </trkpt>
      <trkpt lat="45.73913" lon="4.60286">
        <ele>823.9870605</ele>
        <time>2011-12-29T13:30:41Z</time>
      </trkpt>
      <trkpt lat="45.73867" lon="4.6025">
        <ele>825.4289551</ele>
        <time>2011-12-29T13:31:56Z</time>
      </trkpt>
      <trkpt lat="45.73874" lon="4.60267">
        <ele>825.909668</ele>
        <time>2011-12-29T13:32:37Z</time>
      </trkpt>
      <trkpt lat="45.73871" lon="4.60257">
        <ele>833.6003418</ele>
        <time>2011-12-29T13:33:24Z</time>
      </trkpt>
      <trkpt lat="45.73838" lon="4.60237">
        <ele>832.6391602</ele>
        <time>2011-12-29T13:33:34Z</time>
      </trkpt>
      <trkpt lat="45.73835" lon="4.60212">
        <ele>831.1972656</ele>
        <time>2011-12-29T13:33:43Z</time>
      </trkpt>
      <trkpt lat="45.73881" lon="4.6018">
        <ele>827.3518066</ele>
        <time>2011-12-29T13:34:04Z</time>
      </trkpt>
      <trkpt lat="45.73911" lon="4.6015">
        <ele>827.3518066</ele>
        <time>2011-12-29T13:34:23Z</time>
      </trkpt>
      <trkpt lat="45.73922" lon="4.59982">
        <ele>827.3518066</ele>
        <time>2011-12-29T13:35:01Z</time>
      </trkpt>
      <trkpt lat="45.73951" lon="4.59886">
        <ele>830.7165527</ele>
        <time>2011-12-29T13:35:25Z</time>
      </trkpt>
      <trkpt lat="45.73992" lon="4.59818">
        <ele>832.1584473</ele>
        <time>2011-12-29T13:35:46Z</time>
      </trkpt>
      <trkpt lat="45.74052" lon="4.59756">
        <ele>834.0810547</ele>
        <time>2011-12-29T13:36:10Z</time>
      </trkpt>
      <trkpt lat="45.74077" lon="4.59728">
        <ele>833.6003418</ele>
        <time>2011-12-29T13:36:18Z</time>
      </trkpt>
      <trkpt lat="45.74098" lon="4.59683">
        <ele>831.1972656</ele>
        <time>2011-12-29T13:36:22Z</time>
      </trkpt>
      <trkpt lat="45.74141" lon="4.59584">
        <ele>823.9870605</ele>
        <time>2011-12-29T13:36:30Z</time>
      </trkpt>
      <trkpt lat="45.74145" lon="4.59562">
        <ele>823.0258789</ele>
        <time>2011-12-29T13:36:32Z</time>
      </trkpt>
      <trkpt lat="45.7415" lon="4.59542">
        <ele>823.0258789</ele>
        <time>2011-12-29T13:36:34Z</time>
      </trkpt>
      <trkpt lat="45.74163" lon="4.59493">
        <ele>820.1418457</ele>
        <time>2011-12-29T13:36:40Z</time>
      </trkpt>
      <trkpt lat="45.7419" lon="4.59341">
        <ele>819.1806641</ele>
        <time>2011-12-29T13:37:00Z</time>
      </trkpt>
      <trkpt lat="45.74215" lon="4.59288">
        <ele>819.1806641</ele>
        <time>2011-12-29T13:37:08Z</time>
      </trkpt>
      <trkpt lat="45.74228" lon="4.59276">
        <ele>819.1806641</ele>
        <time>2011-12-29T13:37:10Z</time>
      </trkpt>
      <trkpt lat="45.74264" lon="4.5925">
        <ele>817.7385254</ele>
        <time>2011-12-29T13:37:14Z</time>
      </trkpt>
      <trkpt lat="45.74294" lon="4.59214">
        <ele>811.9707031</ele>
        <time>2011-12-29T13:37:18Z</time>
      </trkpt>
      <trkpt lat="45.74316" lon="4.59207">
        <ele>810.5285645</ele>
        <time>2011-12-29T13:37:21Z</time>
      </trkpt>
      <trkpt lat="45.74359" lon="4.59173">
        <ele>805.2414551</ele>
        <time>2011-12-29T13:37:27Z</time>
      </trkpt>
      <trkpt lat="45.74373" lon="4.59154">
        <ele>802.3574219</ele>
        <time>2011-12-29T13:37:29Z</time>
      </trkpt>
      <trkpt lat="45.74387" lon="4.59112">
        <ele>801.3962402</ele>
        <time>2011-12-29T13:37:33Z</time>
      </trkpt>
      <trkpt lat="45.74388" lon="4.59044">
        <ele>796.1091309</ele>
        <time>2011-12-29T13:37:40Z</time>
      </trkpt>
      <trkpt lat="45.74383" lon="4.59025">
        <ele>794.1862793</ele>
        <time>2011-12-29T13:37:42Z</time>
      </trkpt>
      <trkpt lat="45.74394" lon="4.58993">
        <ele>791.3022461</ele>
        <time>2011-12-29T13:37:46Z</time>
      </trkpt>
      <trkpt lat="45.74417" lon="4.58956">
        <ele>785.5344238</ele>
        <time>2011-12-29T13:37:50Z</time>
      </trkpt>
      <trkpt lat="45.7442" lon="4.58911">
        <ele>774.479248</ele>
        <time>2011-12-29T13:37:56Z</time>
      </trkpt>
      <trkpt lat="45.74445" lon="4.58851">
        <ele>713.9160156</ele>
        <time>2011-12-29T13:38:12Z</time>
      </trkpt>
      <trkpt lat="45.74447" lon="4.58857">
        <ele>711.5129395</ele>
        <time>2011-12-29T13:38:36Z</time>
      </trkpt>
      <trkpt lat="45.74446" lon="4.58849">
        <ele>711.0322266</ele>
        <time>2011-12-29T13:38:40Z</time>
      </trkpt>
      <trkpt lat="45.74441" lon="4.58824">
        <ele>711.0322266</ele>
        <time>2011-12-29T13:38:44Z</time>
      </trkpt>
      <trkpt lat="45.74447" lon="4.5879">
        <ele>711.5129395</ele>
        <time>2011-12-29T13:38:50Z</time>
      </trkpt>
      <trkpt lat="45.74451" lon="4.58782">
        <ele>711.9936523</ele>
        <time>2011-12-29T13:38:56Z</time>
      </trkpt>
      <trkpt lat="45.74446" lon="4.58789">
        <ele>711.5129395</ele>
        <time>2011-12-29T13:39:01Z</time>
      </trkpt>
      <trkpt lat="45.74443" lon="4.58779">
        <ele>710.5515137</ele>
        <time>2011-12-29T13:39:07Z</time>
      </trkpt>
      <trkpt lat="45.74438" lon="4.58753">
        <ele>710.0708008</ele>
        <time>2011-12-29T13:39:12Z</time>
      </trkpt>
      <trkpt lat="45.74429" lon="4.58725">
        <ele>709.590332</ele>
        <time>2011-12-29T13:39:16Z</time>
      </trkpt>
      <trkpt lat="45.74394" lon="4.586">
        <ele>701.8999023</ele>
        <time>2011-12-29T13:39:30Z</time>
      </trkpt>
      <trkpt lat="45.74354" lon="4.58528">
        <ele>687.9606934</ele>
        <time>2011-12-29T13:39:44Z</time>
      </trkpt>
      <trkpt lat="45.74318" lon="4.58494">
        <ele>669.6958008</ele>
        <time>2011-12-29T13:39:56Z</time>
      </trkpt>
      <trkpt lat="45.74295" lon="4.58474">
        <ele>659.6018066</ele>
        <time>2011-12-29T13:40:04Z</time>
      </trkpt>
      <trkpt lat="45.743" lon="4.58453">
        <ele>654.795166</ele>
        <time>2011-12-29T13:40:12Z</time>
      </trkpt>
      <trkpt lat="45.74297" lon="4.58458">
        <ele>647.5852051</ele>
        <time>2011-12-29T13:40:35Z</time>
      </trkpt>
      <trkpt lat="45.74297" lon="4.58459">
        <ele>645.1818848</ele>
        <time>2011-12-29T13:40:47Z</time>
      </trkpt>
      <trkpt lat="45.74301" lon="4.58457">
        <ele>640.3754883</ele>
        <time>2011-12-29T13:41:15Z</time>
      </trkpt>
      <trkpt lat="45.74331" lon="4.5844">
        <ele>637.972168</ele>
        <time>2011-12-29T13:41:24Z</time>
      </trkpt>
      <trkpt lat="45.74367" lon="4.58428">
        <ele>635.0881348</ele>
        <time>2011-12-29T13:41:31Z</time>
      </trkpt>
      <trkpt lat="45.74467" lon="4.58423">
        <ele>625.4748535</ele>
        <time>2011-12-29T13:41:47Z</time>
      </trkpt>
      <trkpt lat="45.7455" lon="4.58386">
        <ele>617.3037109</ele>
        <time>2011-12-29T13:41:59Z</time>
      </trkpt>
      <trkpt lat="45.74567" lon="4.5836">
        <ele>612.9777832</ele>
        <time>2011-12-29T13:42:08Z</time>
      </trkpt>
      <trkpt lat="45.74569" lon="4.58354">
        <ele>607.2099609</ele>
        <time>2011-12-29T13:42:31Z</time>
      </trkpt>
      <trkpt lat="45.74572" lon="4.58356">
        <ele>603.364502</ele>
        <time>2011-12-29T13:42:51Z</time>
      </trkpt>
      <trkpt lat="45.74576" lon="4.58359">
        <ele>605.7680664</ele>
        <time>2011-12-29T13:43:03Z</time>
      </trkpt>
      <trkpt lat="45.7459" lon="4.58382">
        <ele>611.5358887</ele>
        <time>2011-12-29T13:43:22Z</time>
      </trkpt>
      <trkpt lat="45.746" lon="4.58401">
        <ele>615.3811035</ele>
        <time>2011-12-29T13:43:37Z</time>
      </trkpt>
      <trkpt lat="45.74607" lon="4.58425">
        <ele>617.3037109</ele>
        <time>2011-12-29T13:43:54Z</time>
      </trkpt>
      <trkpt lat="45.7461" lon="4.58434">
        <ele>619.2263184</ele>
        <time>2011-12-29T13:44:00Z</time>
      </trkpt>
      <trkpt lat="45.7462" lon="4.58465">
        <ele>624.9943848</ele>
        <time>2011-12-29T13:44:21Z</time>
      </trkpt>
      <trkpt lat="45.74623" lon="4.58483">
        <ele>629.3200684</ele>
        <time>2011-12-29T13:44:35Z</time>
      </trkpt>
      <trkpt lat="45.74626" lon="4.58489">
        <ele>629.8007813</ele>
        <time>2011-12-29T13:44:43Z</time>
      </trkpt>
      <trkpt lat="45.74632" lon="4.58509">
        <ele>634.6074219</ele>
        <time>2011-12-29T13:44:58Z</time>
      </trkpt>
      <trkpt lat="45.74637" lon="4.58521">
        <ele>637.0107422</ele>
        <time>2011-12-29T13:45:08Z</time>
      </trkpt>
      <trkpt lat="45.74649" lon="4.58547">
        <ele>641.3366699</ele>
        <time>2011-12-29T13:45:30Z</time>
      </trkpt>
      <trkpt lat="45.7466" lon="4.58569">
        <ele>647.5852051</ele>
        <time>2011-12-29T13:45:48Z</time>
      </trkpt>
      <trkpt lat="45.7467" lon="4.58595">
        <ele>648.065918</ele>
        <time>2011-12-29T13:46:05Z</time>
      </trkpt>
      <trkpt lat="45.7468" lon="4.58628">
        <ele>649.5078125</ele>
        <time>2011-12-29T13:46:22Z</time>
      </trkpt>
      <trkpt lat="45.74687" lon="4.58676">
        <ele>651.4304199</ele>
        <time>2011-12-29T13:46:42Z</time>
      </trkpt>
      <trkpt lat="45.74677" lon="4.58723">
        <ele>654.3146973</ele>
        <time>2011-12-29T13:47:03Z</time>
      </trkpt>
      <trkpt lat="45.74665" lon="4.58763">
        <ele>653.8339844</ele>
        <time>2011-12-29T13:47:17Z</time>
      </trkpt>
      <trkpt lat="45.74652" lon="4.58827">
        <ele>653.3532715</ele>
        <time>2011-12-29T13:47:32Z</time>
      </trkpt>
      <trkpt lat="45.74636" lon="4.58891">
        <ele>655.7565918</ele>
        <time>2011-12-29T13:47:54Z</time>
      </trkpt>
      <trkpt lat="45.74631" lon="4.58919">
        <ele>655.7565918</ele>
        <time>2011-12-29T13:48:07Z</time>
      </trkpt>
      <trkpt lat="45.74628" lon="4.58919">
        <ele>654.3146973</ele>
        <time>2011-12-29T13:48:31Z</time>
      </trkpt>
      <trkpt lat="45.74631" lon="4.58918">
        <ele>652.3918457</ele>
        <time>2011-12-29T13:48:58Z</time>
      </trkpt>
      <trkpt lat="45.74632" lon="4.58923">
        <ele>652.3918457</ele>
        <time>2011-12-29T13:49:01Z</time>
      </trkpt>
      <trkpt lat="45.7464" lon="4.58981">
        <ele>646.6240234</ele>
        <time>2011-12-29T13:49:16Z</time>
      </trkpt>
      <trkpt lat="45.74645" lon="4.59069">
        <ele>651.9111328</ele>
        <time>2011-12-29T13:49:36Z</time>
      </trkpt>
      <trkpt lat="45.74644" lon="4.59073">
        <ele>652.3918457</ele>
        <time>2011-12-29T13:49:37Z</time>
      </trkpt>
      <trkpt lat="45.74637" lon="4.59137">
        <ele>658.6403809</ele>
        <time>2011-12-29T13:49:57Z</time>
      </trkpt>
      <trkpt lat="45.7462" lon="4.59188">
        <ele>664.4082031</ele>
        <time>2011-12-29T13:50:16Z</time>
      </trkpt>
      <trkpt lat="45.74605" lon="4.59236">
        <ele>669.2150879</ele>
        <time>2011-12-29T13:50:34Z</time>
      </trkpt>
      <trkpt lat="45.74576" lon="4.59288">
        <ele>671.6181641</ele>
        <time>2011-12-29T13:50:54Z</time>
      </trkpt>
      <trkpt lat="45.7455" lon="4.59333">
        <ele>674.9829102</ele>
        <time>2011-12-29T13:51:13Z</time>
      </trkpt>
      <trkpt lat="45.74549" lon="4.59348">
        <ele>675.9440918</ele>
        <time>2011-12-29T13:51:19Z</time>
      </trkpt>
      <trkpt lat="45.74545" lon="4.5936">
        <ele>675.9440918</ele>
        <time>2011-12-29T13:51:24Z</time>
      </trkpt>
      <trkpt lat="45.74524" lon="4.59385">
        <ele>680.7507324</ele>
        <time>2011-12-29T13:51:41Z</time>
      </trkpt>
      <trkpt lat="45.74507" lon="4.59423">
        <ele>682.6733398</ele>
        <time>2011-12-29T13:51:58Z</time>
      </trkpt>
      <trkpt lat="45.74504" lon="4.59427">
        <ele>680.7507324</ele>
        <time>2011-12-29T13:52:19Z</time>
      </trkpt>
      <trkpt lat="45.745" lon="4.59426">
        <ele>683.1538086</ele>
        <time>2011-12-29T13:52:38Z</time>
      </trkpt>
      <trkpt lat="45.74496" lon="4.59427">
        <ele>683.1538086</ele>
        <time>2011-12-29T13:52:40Z</time>
      </trkpt>
      <trkpt lat="45.74478" lon="4.59454">
        <ele>686.9992676</ele>
        <time>2011-12-29T13:52:56Z</time>
      </trkpt>
      <trkpt lat="45.7446" lon="4.59478">
        <ele>688.4414063</ele>
        <time>2011-12-29T13:53:16Z</time>
      </trkpt>
      <trkpt lat="45.74445" lon="4.59511">
        <ele>691.3251953</ele>
        <time>2011-12-29T13:53:33Z</time>
      </trkpt>
      <trkpt lat="45.74421" lon="4.59627">
        <ele>695.651123</ele>
        <time>2011-12-29T13:54:19Z</time>
      </trkpt>
      <trkpt lat="45.74415" lon="4.59627">
        <ele>696.1318359</ele>
        <time>2011-12-29T13:54:22Z</time>
      </trkpt>
      <trkpt lat="45.74414" lon="4.59632">
        <ele>697.0930176</ele>
        <time>2011-12-29T13:54:25Z</time>
      </trkpt>
      <trkpt lat="45.74416" lon="4.59684">
        <ele>698.5349121</ele>
        <time>2011-12-29T13:54:47Z</time>
      </trkpt>
      <trkpt lat="45.74407" lon="4.59757">
        <ele>711.9936523</ele>
        <time>2011-12-29T13:55:29Z</time>
      </trkpt>
      <trkpt lat="45.74404" lon="4.59782">
        <ele>711.5129395</ele>
        <time>2011-12-29T13:56:00Z</time>
      </trkpt>
      <trkpt lat="45.744" lon="4.59797">
        <ele>714.8774414</ele>
        <time>2011-12-29T13:56:20Z</time>
      </trkpt>
      <trkpt lat="45.744" lon="4.59803">
        <ele>715.3581543</ele>
        <time>2011-12-29T13:56:25Z</time>
      </trkpt>
      <trkpt lat="45.74399" lon="4.59824">
        <ele>716.800293</ele>
        <time>2011-12-29T13:56:38Z</time>
      </trkpt>
      <trkpt lat="45.74394" lon="4.5983">
        <ele>717.2810059</ele>
        <time>2011-12-29T13:56:42Z</time>
      </trkpt>
      <trkpt lat="45.74378" lon="4.59836">
        <ele>725.4519043</ele>
        <time>2011-12-29T13:57:08Z</time>
      </trkpt>
      <trkpt lat="45.74371" lon="4.59837">
        <ele>729.777832</ele>
        <time>2011-12-29T13:57:24Z</time>
      </trkpt>
      <trkpt lat="45.74363" lon="4.59839">
        <ele>728.8166504</ele>
        <time>2011-12-29T13:57:38Z</time>
      </trkpt>
      <trkpt lat="45.74355" lon="4.59832">
        <ele>730.7392578</ele>
        <time>2011-12-29T13:58:04Z</time>
      </trkpt>
      <trkpt lat="45.74349" lon="4.59824">
        <ele>735.5458984</ele>
        <time>2011-12-29T13:58:27Z</time>
      </trkpt>
      <trkpt lat="45.74343" lon="4.59831">
        <ele>741.3137207</ele>
        <time>2011-12-29T13:58:39Z</time>
      </trkpt>
      <trkpt lat="45.74332" lon="4.59842">
        <ele>741.3137207</ele>
        <time>2011-12-29T13:58:57Z</time>
      </trkpt>
      <trkpt lat="45.74326" lon="4.59847">
        <ele>750.4465332</ele>
        <time>2011-12-29T13:59:13Z</time>
      </trkpt>
      <trkpt lat="45.74316" lon="4.59841">
        <ele>753.8110352</ele>
        <time>2011-12-29T13:59:37Z</time>
      </trkpt>
      <trkpt lat="45.74313" lon="4.59841">
        <ele>759.5788574</ele>
        <time>2011-12-29T13:59:52Z</time>
      </trkpt>
      <trkpt lat="45.74299" lon="4.59842">
        <ele>760.5400391</ele>
        <time>2011-12-29T14:00:09Z</time>
      </trkpt>
      <trkpt lat="45.74296" lon="4.59852">
        <ele>765.8276367</ele>
        <time>2011-12-29T14:00:35Z</time>
      </trkpt>
      <trkpt lat="45.7428" lon="4.59843">
        <ele>756.2141113</ele>
        <time>2011-12-29T14:01:08Z</time>
      </trkpt>
      <trkpt lat="45.74265" lon="4.59851">
        <ele>766.7888184</ele>
        <time>2011-12-29T14:01:50Z</time>
      </trkpt>
      <trkpt lat="45.74262" lon="4.59858">
        <ele>770.6340332</ele>
        <time>2011-12-29T14:02:26Z</time>
      </trkpt>
      <trkpt lat="45.74249" lon="4.59866">
        <ele>773.0373535</ele>
        <time>2011-12-29T14:02:45Z</time>
      </trkpt>
      <trkpt lat="45.7424" lon="4.59861">
        <ele>781.689209</ele>
        <time>2011-12-29T14:03:04Z</time>
      </trkpt>
      <trkpt lat="45.74233" lon="4.59864">
        <ele>786.9763184</ele>
        <time>2011-12-29T14:03:11Z</time>
      </trkpt>
      <trkpt lat="45.74201" lon="4.59868">
        <ele>789.3796387</ele>
        <time>2011-12-29T14:04:22Z</time>
      </trkpt>
      <trkpt lat="45.74162" lon="4.59791">
        <ele>790.8215332</ele>
        <time>2011-12-29T14:07:38Z</time>
      </trkpt>
      <trkpt lat="45.74157" lon="4.5979">
        <ele>799.4736328</ele>
        <time>2011-12-29T14:08:11Z</time>
      </trkpt>
      <trkpt lat="45.74162" lon="4.59781">
        <ele>809.0866699</ele>
        <time>2011-12-29T14:09:02Z</time>
      </trkpt>
      <trkpt lat="45.74138" lon="4.59771">
        <ele>815.3354492</ele>
        <time>2011-12-29T14:09:29Z</time>
      </trkpt>
      <trkpt lat="45.74135" lon="4.59766">
        <ele>819.1806641</ele>
        <time>2011-12-29T14:09:46Z</time>
      </trkpt>
      <trkpt lat="45.74128" lon="4.59765">
        <ele>825.909668</ele>
        <time>2011-12-29T14:10:10Z</time>
      </trkpt>
      <trkpt lat="45.74104" lon="4.59776">
        <ele>819.661377</ele>
        <time>2011-12-29T14:11:17Z</time>
      </trkpt>
      <trkpt lat="45.74104" lon="4.59774">
        <ele>822.545166</ele>
        <time>2011-12-29T14:11:32Z</time>
      </trkpt>
      <trkpt lat="45.7414" lon="4.59774">
        <ele>819.661377</ele>
        <time>2011-12-29T14:11:50Z</time>
      </trkpt>
      <trkpt lat="45.7415" lon="4.59772">
        <ele>817.7385254</ele>
        <time>2011-12-29T14:12:01Z</time>
      </trkpt>
      <trkpt lat="45.74177" lon="4.59794">
        <ele>810.5285645</ele>
        <time>2011-12-29T14:12:17Z</time>
      </trkpt>
      <trkpt lat="45.74194" lon="4.59833">
        <ele>809.0866699</ele>
        <time>2011-12-29T14:12:37Z</time>
      </trkpt>
      <trkpt lat="45.7419" lon="4.59834">
        <ele>816.2966309</ele>
        <time>2011-12-29T14:13:02Z</time>
      </trkpt>
      <trkpt lat="45.74188" lon="4.5984">
        <ele>811.0092773</ele>
        <time>2011-12-29T14:13:30Z</time>
      </trkpt>
      <trkpt lat="45.74212" lon="4.59859">
        <ele>809.0866699</ele>
        <time>2011-12-29T14:13:47Z</time>
      </trkpt>
      <trkpt lat="45.74236" lon="4.59855">
        <ele>800.4350586</ele>
        <time>2011-12-29T14:14:00Z</time>
      </trkpt>
      <trkpt lat="45.74262" lon="4.5985">
        <ele>797.5510254</ele>
        <time>2011-12-29T14:14:07Z</time>
      </trkpt>
      <trkpt lat="45.74265" lon="4.5985">
        <ele>796.5898438</ele>
        <time>2011-12-29T14:14:08Z</time>
      </trkpt>
      <trkpt lat="45.74313" lon="4.59826">
        <ele>786.9763184</ele>
        <time>2011-12-29T14:14:23Z</time>
      </trkpt>
      <trkpt lat="45.74322" lon="4.59816">
        <ele>786.4958496</ele>
        <time>2011-12-29T14:14:27Z</time>
      </trkpt>
      <trkpt lat="45.74327" lon="4.59823">
        <ele>784.0925293</ele>
        <time>2011-12-29T14:14:30Z</time>
      </trkpt>
      <trkpt lat="45.74338" lon="4.59822">
        <ele>779.7663574</ele>
        <time>2011-12-29T14:14:35Z</time>
      </trkpt>
      <trkpt lat="45.74357" lon="4.59818">
        <ele>775.9211426</ele>
        <time>2011-12-29T14:14:41Z</time>
      </trkpt>
      <trkpt lat="45.7437" lon="4.59803">
        <ele>766.3081055</ele>
        <time>2011-12-29T14:14:58Z</time>
      </trkpt>
      <trkpt lat="45.74378" lon="4.59802">
        <ele>749.4851074</ele>
        <time>2011-12-29T14:15:15Z</time>
      </trkpt>
      <trkpt lat="45.74382" lon="4.59798">
        <ele>746.6010742</ele>
        <time>2011-12-29T14:15:18Z</time>
      </trkpt>
      <trkpt lat="45.74384" lon="4.5979">
        <ele>744.1977539</ele>
        <time>2011-12-29T14:15:20Z</time>
      </trkpt>
      <trkpt lat="45.74383" lon="4.59774">
        <ele>739.3911133</ele>
        <time>2011-12-29T14:15:24Z</time>
      </trkpt>
      <trkpt lat="45.74389" lon="4.59712">
        <ele>733.623291</ele>
        <time>2011-12-29T14:15:35Z</time>
      </trkpt>
      <trkpt lat="45.74406" lon="4.59603">
        <ele>726.894043</ele>
        <time>2011-12-29T14:15:49Z</time>
      </trkpt>
      <trkpt lat="45.74412" lon="4.59588">
        <ele>725.9326172</ele>
        <time>2011-12-29T14:15:52Z</time>
      </trkpt>
      <trkpt lat="45.74435" lon="4.5951">
        <ele>720.1647949</ele>
        <time>2011-12-29T14:16:04Z</time>
      </trkpt>
      <trkpt lat="45.74444" lon="4.59474">
        <ele>717.2810059</ele>
        <time>2011-12-29T14:16:09Z</time>
      </trkpt>
      <trkpt lat="45.74476" lon="4.59439">
        <ele>714.3967285</ele>
        <time>2011-12-29T14:16:16Z</time>
      </trkpt>
      <trkpt lat="45.74482" lon="4.59444">
        <ele>713.9160156</ele>
        <time>2011-12-29T14:16:23Z</time>
      </trkpt>
      <trkpt lat="45.74566" lon="4.59674">
        <ele>710.0708008</ele>
        <time>2011-12-29T14:16:58Z</time>
      </trkpt>
      <trkpt lat="45.74477" lon="4.59778">
        <ele>709.590332</ele>
        <time>2011-12-29T14:17:09Z</time>
      </trkpt>
      <trkpt lat="45.74473" lon="4.59806">
        <ele>709.590332</ele>
        <time>2011-12-29T14:17:11Z</time>
      </trkpt>
      <trkpt lat="45.74516" lon="4.59918">
        <ele>697.5737305</ele>
        <time>2011-12-29T14:17:45Z</time>
      </trkpt>
      <trkpt lat="45.74518" lon="4.59974">
        <ele>693.7285156</ele>
        <time>2011-12-29T14:18:02Z</time>
      </trkpt>
      <trkpt lat="45.74448" lon="4.60226">
        <ele>691.8059082</ele>
        <time>2011-12-29T14:18:50Z</time>
      </trkpt>
      <trkpt lat="45.74424" lon="4.60265">
        <ele>688.9221191</ele>
        <time>2011-12-29T14:19:03Z</time>
      </trkpt>
      <trkpt lat="45.74441" lon="4.60315">
        <ele>686.9992676</ele>
        <time>2011-12-29T14:19:16Z</time>
      </trkpt>
      <trkpt lat="45.74468" lon="4.60364">
        <ele>688.4414063</ele>
        <time>2011-12-29T14:19:29Z</time>
      </trkpt>
      <trkpt lat="45.74476" lon="4.60375">
        <ele>691.3251953</ele>
        <time>2011-12-29T14:19:36Z</time>
      </trkpt>
      <trkpt lat="45.74507" lon="4.60413">
        <ele>695.1704102</ele>
        <time>2011-12-29T14:19:54Z</time>
      </trkpt>
      <trkpt lat="45.74537" lon="4.60446">
        <ele>692.2866211</ele>
        <time>2011-12-29T14:20:11Z</time>
      </trkpt>
      <trkpt lat="45.74585" lon="4.60524">
        <ele>689.4025879</ele>
        <time>2011-12-29T14:20:34Z</time>
      </trkpt>
      <trkpt lat="45.74678" lon="4.60691">
        <ele>688.9221191</ele>
        <time>2011-12-29T14:21:13Z</time>
      </trkpt>
      <trkpt lat="45.7472" lon="4.6078">
        <ele>690.3640137</ele>
        <time>2011-12-29T14:21:34Z</time>
      </trkpt>
      <trkpt lat="45.74741" lon="4.60849">
        <ele>691.8059082</ele>
        <time>2011-12-29T14:21:53Z</time>
      </trkpt>
      <trkpt lat="45.74758" lon="4.6087">
        <ele>692.2866211</ele>
        <time>2011-12-29T14:22:01Z</time>
      </trkpt>
      <trkpt lat="45.74802" lon="4.60859">
        <ele>694.2092285</ele>
        <time>2011-12-29T14:22:17Z</time>
      </trkpt>
      <trkpt lat="45.74824" lon="4.60847">
        <ele>691.8059082</ele>
        <time>2011-12-29T14:22:30Z</time>
      </trkpt>
      <trkpt lat="45.74829" lon="4.60843">
        <ele>692.2866211</ele>
        <time>2011-12-29T14:22:34Z</time>
      </trkpt>
      <trkpt lat="45.74853" lon="4.60821">
        <ele>692.767334</ele>
        <time>2011-12-29T14:22:50Z</time>
      </trkpt>
      <trkpt lat="45.74875" lon="4.60787">
        <ele>692.2866211</ele>
        <time>2011-12-29T14:23:08Z</time>
      </trkpt>
      <trkpt lat="45.74905" lon="4.60764">
        <ele>693.7285156</ele>
        <time>2011-12-29T14:23:29Z</time>
      </trkpt>
      <trkpt lat="45.74915" lon="4.60765">
        <ele>694.6896973</ele>
        <time>2011-12-29T14:23:36Z</time>
      </trkpt>
      <trkpt lat="45.7491" lon="4.60792">
        <ele>699.4963379</ele>
        <time>2011-12-29T14:23:52Z</time>
      </trkpt>
      <trkpt lat="45.74894" lon="4.60823">
        <ele>702.3803711</ele>
        <time>2011-12-29T14:24:15Z</time>
      </trkpt>
      <trkpt lat="45.74886" lon="4.60857">
        <ele>704.3032227</ele>
        <time>2011-12-29T14:24:32Z</time>
      </trkpt>
      <trkpt lat="45.74876" lon="4.60895">
        <ele>707.1870117</ele>
        <time>2011-12-29T14:24:52Z</time>
      </trkpt>
      <trkpt lat="45.74864" lon="4.60934">
        <ele>709.590332</ele>
        <time>2011-12-29T14:25:13Z</time>
      </trkpt>
      <trkpt lat="45.7485" lon="4.60969">
        <ele>715.8388672</ele>
        <time>2011-12-29T14:25:35Z</time>
      </trkpt>
      <trkpt lat="45.74847" lon="4.60973">
        <ele>718.2421875</ele>
        <time>2011-12-29T14:25:38Z</time>
      </trkpt>
      <trkpt lat="45.7484" lon="4.6099">
        <ele>718.7229004</ele>
        <time>2011-12-29T14:25:49Z</time>
      </trkpt>
      <trkpt lat="45.74839" lon="4.60996">
        <ele>719.6843262</ele>
        <time>2011-12-29T14:25:52Z</time>
      </trkpt>
      <trkpt lat="45.74834" lon="4.61008">
        <ele>720.6455078</ele>
        <time>2011-12-29T14:26:00Z</time>
      </trkpt>
      <trkpt lat="45.74822" lon="4.61039">
        <ele>722.0874023</ele>
        <time>2011-12-29T14:26:20Z</time>
      </trkpt>
      <trkpt lat="45.74815" lon="4.61055">
        <ele>724.4907227</ele>
        <time>2011-12-29T14:26:30Z</time>
      </trkpt>
      <trkpt lat="45.74806" lon="4.61083">
        <ele>726.4133301</ele>
        <time>2011-12-29T14:26:46Z</time>
      </trkpt>
      <trkpt lat="45.7479" lon="4.61106">
        <ele>726.894043</ele>
        <time>2011-12-29T14:27:02Z</time>
      </trkpt>
      <trkpt lat="45.74787" lon="4.61103">
        <ele>726.4133301</ele>
        <time>2011-12-29T14:27:11Z</time>
      </trkpt>
      <trkpt lat="45.74787" lon="4.61107">
        <ele>727.3747559</ele>
        <time>2011-12-29T14:27:24Z</time>
      </trkpt>
      <trkpt lat="45.74787" lon="4.61105">
        <ele>727.8552246</ele>
        <time>2011-12-29T14:27:48Z</time>
      </trkpt>
      <trkpt lat="45.74785" lon="4.6112">
        <ele>727.3747559</ele>
        <time>2011-12-29T14:28:34Z</time>
      </trkpt>
      <trkpt lat="45.74789" lon="4.61116">
        <ele>727.8552246</ele>
        <time>2011-12-29T14:29:35Z</time>
      </trkpt>
      <trkpt lat="45.74785" lon="4.61116">
        <ele>731.7004395</ele>
        <time>2011-12-29T14:30:06Z</time>
      </trkpt>
      <trkpt lat="45.74785" lon="4.61115">
        <ele>731.7004395</ele>
        <time>2011-12-29T14:30:32Z</time>
      </trkpt>
      <trkpt lat="45.74785" lon="4.61116">
        <ele>733.1425781</ele>
        <time>2011-12-29T14:30:58Z</time>
      </trkpt>
      <trkpt lat="45.74784" lon="4.61115">
        <ele>736.0266113</ele>
        <time>2011-12-29T14:31:14Z</time>
      </trkpt>
      <trkpt lat="45.74785" lon="4.61114">
        <ele>732.6621094</ele>
        <time>2011-12-29T14:31:41Z</time>
      </trkpt>
      <trkpt lat="45.74785" lon="4.61115">
        <ele>727.3747559</ele>
        <time>2011-12-29T14:32:23Z</time>
      </trkpt>
      <trkpt lat="45.74786" lon="4.61113">
        <ele>728.8166504</ele>
        <time>2011-12-29T14:32:48Z</time>
      </trkpt>
      <trkpt lat="45.74785" lon="4.6111">
        <ele>732.1813965</ele>
        <time>2011-12-29T14:33:03Z</time>
      </trkpt>
      <trkpt lat="45.74784" lon="4.61114">
        <ele>731.7004395</ele>
        <time>2011-12-29T14:33:05Z</time>
      </trkpt>
      <trkpt lat="45.74796" lon="4.61135">
        <ele>734.1040039</ele>
        <time>2011-12-29T14:33:15Z</time>
      </trkpt>
      <trkpt lat="45.74808" lon="4.61144">
        <ele>736.5073242</ele>
        <time>2011-12-29T14:33:26Z</time>
      </trkpt>
      <trkpt lat="45.74812" lon="4.61143">
        <ele>736.987793</ele>
        <time>2011-12-29T14:33:29Z</time>
      </trkpt>
      <trkpt lat="45.74809" lon="4.61152">
        <ele>737.4685059</ele>
        <time>2011-12-29T14:33:34Z</time>
      </trkpt>
      <trkpt lat="45.74811" lon="4.6116">
        <ele>738.4299316</ele>
        <time>2011-12-29T14:33:40Z</time>
      </trkpt>
      <trkpt lat="45.74829" lon="4.6116">
        <ele>741.7944336</ele>
        <time>2011-12-29T14:33:54Z</time>
      </trkpt>
      <trkpt lat="45.74843" lon="4.61141">
        <ele>746.1203613</ele>
        <time>2011-12-29T14:34:09Z</time>
      </trkpt>
      <trkpt lat="45.74858" lon="4.6114">
        <ele>746.1203613</ele>
        <time>2011-12-29T14:34:21Z</time>
      </trkpt>
      <trkpt lat="45.74876" lon="4.61115">
        <ele>745.1589355</ele>
        <time>2011-12-29T14:34:38Z</time>
      </trkpt>
      <trkpt lat="45.74887" lon="4.61108">
        <ele>747.081543</ele>
        <time>2011-12-29T14:34:45Z</time>
      </trkpt>
      <trkpt lat="45.74906" lon="4.61106">
        <ele>749.4851074</ele>
        <time>2011-12-29T14:34:55Z</time>
      </trkpt>
      <trkpt lat="45.74932" lon="4.61083">
        <ele>751.8884277</ele>
        <time>2011-12-29T14:35:10Z</time>
      </trkpt>
      <trkpt lat="45.74963" lon="4.61067">
        <ele>755.7336426</ele>
        <time>2011-12-29T14:35:26Z</time>
      </trkpt>
      <trkpt lat="45.74991" lon="4.6105">
        <ele>756.6948242</ele>
        <time>2011-12-29T14:35:43Z</time>
      </trkpt>
      <trkpt lat="45.75031" lon="4.61036">
        <ele>758.1369629</ele>
        <time>2011-12-29T14:35:57Z</time>
      </trkpt>
      <trkpt lat="45.75035" lon="4.61033">
        <ele>758.6174316</ele>
        <time>2011-12-29T14:36:00Z</time>
      </trkpt>
      <trkpt lat="45.7508" lon="4.61021">
        <ele>758.1369629</ele>
        <time>2011-12-29T14:36:14Z</time>
      </trkpt>
      <trkpt lat="45.75135" lon="4.61038">
        <ele>757.65625</ele>
        <time>2011-12-29T14:36:31Z</time>
      </trkpt>
      <trkpt lat="45.75165" lon="4.61091">
        <ele>760.0593262</ele>
        <time>2011-12-29T14:36:48Z</time>
      </trkpt>
      <trkpt lat="45.75208" lon="4.61152">
        <ele>761.9821777</ele>
        <time>2011-12-29T14:37:07Z</time>
      </trkpt>
      <trkpt lat="45.75239" lon="4.61203">
        <ele>763.4240723</ele>
        <time>2011-12-29T14:37:23Z</time>
      </trkpt>
      <trkpt lat="45.75257" lon="4.61285">
        <ele>764.8662109</ele>
        <time>2011-12-29T14:37:47Z</time>
      </trkpt>
      <trkpt lat="45.7527" lon="4.61339">
        <ele>771.5952148</ele>
        <time>2011-12-29T14:38:07Z</time>
      </trkpt>
      <trkpt lat="45.7527" lon="4.61389">
        <ele>776.8825684</ele>
        <time>2011-12-29T14:38:26Z</time>
      </trkpt>
      <trkpt lat="45.75271" lon="4.61438">
        <ele>778.3244629</ele>
        <time>2011-12-29T14:38:42Z</time>
      </trkpt>
      <trkpt lat="45.75284" lon="4.61512">
        <ele>777.84375</ele>
        <time>2011-12-29T14:39:04Z</time>
      </trkpt>
      <trkpt lat="45.75306" lon="4.61566">
        <ele>778.3244629</ele>
        <time>2011-12-29T14:39:21Z</time>
      </trkpt>
      <trkpt lat="45.7541" lon="4.61625">
        <ele>781.689209</ele>
        <time>2011-12-29T14:39:54Z</time>
      </trkpt>
      <trkpt lat="45.75478" lon="4.61654">
        <ele>775.9211426</ele>
        <time>2011-12-29T14:40:06Z</time>
      </trkpt>
      <trkpt lat="45.75508" lon="4.61678">
        <ele>772.0759277</ele>
        <time>2011-12-29T14:40:11Z</time>
      </trkpt>
      <trkpt lat="45.75526" lon="4.61702">
        <ele>771.1147461</ele>
        <time>2011-12-29T14:40:20Z</time>
      </trkpt>
      <trkpt lat="45.75535" lon="4.61713">
        <ele>769.6728516</ele>
        <time>2011-12-29T14:40:23Z</time>
      </trkpt>
      <trkpt lat="45.75574" lon="4.61767">
        <ele>766.7888184</ele>
        <time>2011-12-29T14:40:32Z</time>
      </trkpt>
      <trkpt lat="45.75592" lon="4.61787">
        <ele>764.385498</ele>
        <time>2011-12-29T14:40:40Z</time>
      </trkpt>
      <trkpt lat="45.75592" lon="4.61787">
        <ele>767.2695313</ele>
        <time>2011-12-29T14:40:49Z</time>
      </trkpt>
      <trkpt lat="45.75611" lon="4.61784">
        <ele>764.8662109</ele>
        <time>2011-12-29T14:40:53Z</time>
      </trkpt>
      <trkpt lat="45.75608" lon="4.61785">
        <ele>763.904541</ele>
        <time>2011-12-29T14:40:58Z</time>
      </trkpt>
      <trkpt lat="45.7561" lon="4.61796">
        <ele>762.4626465</ele>
        <time>2011-12-29T14:41:07Z</time>
      </trkpt>
      <trkpt lat="45.75639" lon="4.61854">
        <ele>760.5400391</ele>
        <time>2011-12-29T14:41:23Z</time>
      </trkpt>
      <trkpt lat="45.75655" lon="4.61913">
        <ele>763.4240723</ele>
        <time>2011-12-29T14:41:42Z</time>
      </trkpt>
      <trkpt lat="45.7567" lon="4.62001">
        <ele>762.9433594</ele>
        <time>2011-12-29T14:42:01Z</time>
      </trkpt>
      <trkpt lat="45.75678" lon="4.62074">
        <ele>761.9821777</ele>
        <time>2011-12-29T14:42:16Z</time>
      </trkpt>
      <trkpt lat="45.75682" lon="4.62102">
        <ele>763.904541</ele>
        <time>2011-12-29T14:42:24Z</time>
      </trkpt>
      <trkpt lat="45.75684" lon="4.62108">
        <ele>764.385498</ele>
        <time>2011-12-29T14:42:28Z</time>
      </trkpt>
      <trkpt lat="45.75694" lon="4.62145">
        <ele>764.8662109</ele>
        <time>2011-12-29T14:42:37Z</time>
      </trkpt>
      <trkpt lat="45.7571" lon="4.62205">
        <ele>769.1921387</ele>
        <time>2011-12-29T14:42:55Z</time>
      </trkpt>
      <trkpt lat="45.75731" lon="4.62284">
        <ele>767.75</ele>
        <time>2011-12-29T14:43:17Z</time>
      </trkpt>
      <trkpt lat="45.75761" lon="4.62318">
        <ele>770.6340332</ele>
        <time>2011-12-29T14:43:35Z</time>
      </trkpt>
      <trkpt lat="45.7579" lon="4.62334">
        <ele>773.9985352</ele>
        <time>2011-12-29T14:43:54Z</time>
      </trkpt>
      <trkpt lat="45.75822" lon="4.62351">
        <ele>777.84375</ele>
        <time>2011-12-29T14:44:15Z</time>
      </trkpt>
      <trkpt lat="45.7584" lon="4.62361">
        <ele>779.7663574</ele>
        <time>2011-12-29T14:44:30Z</time>
      </trkpt>
      <trkpt lat="45.75857" lon="4.6237">
        <ele>786.9763184</ele>
        <time>2011-12-29T14:44:48Z</time>
      </trkpt>
      <trkpt lat="45.75857" lon="4.6237">
        <ele>789.8603516</ele>
        <time>2011-12-29T14:44:57Z</time>
      </trkpt>
      <trkpt lat="45.75857" lon="4.6237">
        <ele>791.3022461</ele>
        <time>2011-12-29T14:45:06Z</time>
      </trkpt>
      <trkpt lat="45.75848" lon="4.62478">
        <ele>791.782959</ele>
        <time>2011-12-29T14:45:22Z</time>
      </trkpt>
      <trkpt lat="45.75844" lon="4.62478">
        <ele>791.3022461</ele>
        <time>2011-12-29T14:45:28Z</time>
      </trkpt>
      <trkpt lat="45.75842" lon="4.62479">
        <ele>791.782959</ele>
        <time>2011-12-29T14:45:31Z</time>
      </trkpt>
      <trkpt lat="45.75837" lon="4.6252">
        <ele>788.418457</ele>
        <time>2011-12-29T14:45:44Z</time>
      </trkpt>
      <trkpt lat="45.75851" lon="4.62549">
        <ele>786.9763184</ele>
        <time>2011-12-29T14:45:58Z</time>
      </trkpt>
      <trkpt lat="45.7589" lon="4.62576">
        <ele>786.4958496</ele>
        <time>2011-12-29T14:46:14Z</time>
      </trkpt>
      <trkpt lat="45.75967" lon="4.62609">
        <ele>781.2087402</ele>
        <time>2011-12-29T14:46:21Z</time>
      </trkpt>
      <trkpt lat="45.75982" lon="4.62602">
        <ele>776.4018555</ele>
        <time>2011-12-29T14:46:26Z</time>
      </trkpt>
      <trkpt lat="45.76031" lon="4.62672">
        <ele>771.1147461</ele>
        <time>2011-12-29T14:46:37Z</time>
      </trkpt>
      <trkpt lat="45.76091" lon="4.62668">
        <ele>768.2307129</ele>
        <time>2011-12-29T14:46:45Z</time>
      </trkpt>
      <trkpt lat="45.7614" lon="4.6267">
        <ele>767.2695313</ele>
        <time>2011-12-29T14:46:54Z</time>
      </trkpt>
      <trkpt lat="45.76214" lon="4.62636">
        <ele>767.2695313</ele>
        <time>2011-12-29T14:46:57Z</time>
      </trkpt>
      <trkpt lat="45.76224" lon="4.62876">
        <ele>758.1369629</ele>
        <time>2011-12-29T14:47:12Z</time>
      </trkpt>
      <trkpt lat="45.76227" lon="4.62877">
        <ele>757.1755371</ele>
        <time>2011-12-29T14:47:15Z</time>
      </trkpt>
      <trkpt lat="45.76274" lon="4.62922">
        <ele>756.6948242</ele>
        <time>2011-12-29T14:47:20Z</time>
      </trkpt>
      <trkpt lat="45.76282" lon="4.62889">
        <ele>756.2141113</ele>
        <time>2011-12-29T14:47:33Z</time>
      </trkpt>
      <trkpt lat="45.76292" lon="4.62921">
        <ele>742.2751465</ele>
        <time>2011-12-29T14:47:50Z</time>
      </trkpt>
      <trkpt lat="45.76297" lon="4.62931">
        <ele>739.8718262</ele>
        <time>2011-12-29T14:47:55Z</time>
      </trkpt>
      <trkpt lat="45.76305" lon="4.62936">
        <ele>730.2585449</ele>
        <time>2011-12-29T14:48:12Z</time>
      </trkpt>
      <trkpt lat="45.76305" lon="4.62936">
        <ele>724.9714355</ele>
        <time>2011-12-29T14:48:32Z</time>
      </trkpt>
      <trkpt lat="45.76314" lon="4.62941">
        <ele>725.4519043</ele>
        <time>2011-12-29T14:48:40Z</time>
      </trkpt>
      <trkpt lat="45.76322" lon="4.6295">
        <ele>725.9326172</ele>
        <time>2011-12-29T14:48:44Z</time>
      </trkpt>
      <trkpt lat="45.76401" lon="4.63025">
        <ele>732.1813965</ele>
        <time>2011-12-29T14:49:22Z</time>
      </trkpt>
      <trkpt lat="45.76436" lon="4.63058">
        <ele>730.7392578</ele>
        <time>2011-12-29T14:49:37Z</time>
      </trkpt>
      <trkpt lat="45.76436" lon="4.63058">
        <ele>730.2585449</ele>
        <time>2011-12-29T14:49:42Z</time>
      </trkpt>
      <trkpt lat="45.76447" lon="4.63064">
        <ele>728.8166504</ele>
        <time>2011-12-29T14:49:46Z</time>
      </trkpt>
      <trkpt lat="45.76505" lon="4.63069">
        <ele>726.894043</ele>
        <time>2011-12-29T14:50:02Z</time>
      </trkpt>
      <trkpt lat="45.76534" lon="4.63068">
        <ele>728.3359375</ele>
        <time>2011-12-29T14:50:10Z</time>
      </trkpt>
      <trkpt lat="45.76565" lon="4.63063">
        <ele>725.9326172</ele>
        <time>2011-12-29T14:50:17Z</time>
      </trkpt>
      <trkpt lat="45.76596" lon="4.63065">
        <ele>726.894043</ele>
        <time>2011-12-29T14:50:28Z</time>
      </trkpt>
      <trkpt lat="45.7663" lon="4.63077">
        <ele>727.3747559</ele>
        <time>2011-12-29T14:50:44Z</time>
      </trkpt>
      <trkpt lat="45.76633" lon="4.63078">
        <ele>726.894043</ele>
        <time>2011-12-29T14:50:45Z</time>
      </trkpt>
      <trkpt lat="45.76641" lon="4.63083">
        <ele>726.894043</ele>
        <time>2011-12-29T14:50:49Z</time>
      </trkpt>
      <trkpt lat="45.76664" lon="4.631">
        <ele>730.2585449</ele>
        <time>2011-12-29T14:51:03Z</time>
      </trkpt>
      <trkpt lat="45.76702" lon="4.63026">
        <ele>733.1425781</ele>
        <time>2011-12-29T14:51:10Z</time>
      </trkpt>
      <trkpt lat="45.76718" lon="4.63059">
        <ele>736.5073242</ele>
        <time>2011-12-29T14:51:26Z</time>
      </trkpt>
      <trkpt lat="45.76735" lon="4.63091">
        <ele>738.9106445</ele>
        <time>2011-12-29T14:51:44Z</time>
      </trkpt>
      <trkpt lat="45.76771" lon="4.63145">
        <ele>736.987793</ele>
        <time>2011-12-29T14:52:00Z</time>
      </trkpt>
      <trkpt lat="45.76777" lon="4.63152">
        <ele>736.987793</ele>
        <time>2011-12-29T14:52:02Z</time>
      </trkpt>
      <trkpt lat="45.76765" lon="4.63241">
        <ele>735.0654297</ele>
        <time>2011-12-29T14:52:10Z</time>
      </trkpt>
      <trkpt lat="45.76799" lon="4.63296">
        <ele>734.5847168</ele>
        <time>2011-12-29T14:52:14Z</time>
      </trkpt>
      <trkpt lat="45.76806" lon="4.63305">
        <ele>733.623291</ele>
        <time>2011-12-29T14:52:16Z</time>
      </trkpt>
      <trkpt lat="45.76822" lon="4.63329">
        <ele>734.5847168</ele>
        <time>2011-12-29T14:52:19Z</time>
      </trkpt>
      <trkpt lat="45.76826" lon="4.63341">
        <ele>733.623291</ele>
        <time>2011-12-29T14:52:26Z</time>
      </trkpt>
      <trkpt lat="45.76928" lon="4.6327">
        <ele>733.623291</ele>
        <time>2011-12-29T14:52:29Z</time>
      </trkpt>
      <trkpt lat="45.76941" lon="4.6327">
        <ele>733.1425781</ele>
        <time>2011-12-29T14:52:32Z</time>
      </trkpt>
      <trkpt lat="45.76946" lon="4.63267">
        <ele>733.1425781</ele>
        <time>2011-12-29T14:52:34Z</time>
      </trkpt>
      <trkpt lat="45.76958" lon="4.63259">
        <ele>733.1425781</ele>
        <time>2011-12-29T14:52:37Z</time>
      </trkpt>
      <trkpt lat="45.76998" lon="4.63235">
        <ele>728.3359375</ele>
        <time>2011-12-29T14:52:43Z</time>
      </trkpt>
      <trkpt lat="45.77026" lon="4.63225">
        <ele>725.9326172</ele>
        <time>2011-12-29T14:52:46Z</time>
      </trkpt>
      <trkpt lat="45.77073" lon="4.63215">
        <ele>721.6066895</ele>
        <time>2011-12-29T14:52:51Z</time>
      </trkpt>
      <trkpt lat="45.77101" lon="4.63204">
        <ele>719.2036133</ele>
        <time>2011-12-29T14:52:55Z</time>
      </trkpt>
      <trkpt lat="45.77115" lon="4.63192">
        <ele>716.800293</ele>
        <time>2011-12-29T14:52:59Z</time>
      </trkpt>
      <trkpt lat="45.77121" lon="4.63192">
        <ele>714.3967285</ele>
        <time>2011-12-29T14:53:07Z</time>
      </trkpt>
      <trkpt lat="45.77128" lon="4.63232">
        <ele>715.3581543</ele>
        <time>2011-12-29T14:53:24Z</time>
      </trkpt>
      <trkpt lat="45.77134" lon="4.63242">
        <ele>715.8388672</ele>
        <time>2011-12-29T14:53:30Z</time>
      </trkpt>
      <trkpt lat="45.77162" lon="4.63223">
        <ele>712.954834</ele>
        <time>2011-12-29T14:53:42Z</time>
      </trkpt>
      <trkpt lat="45.77182" lon="4.6319">
        <ele>712.4741211</ele>
        <time>2011-12-29T14:53:49Z</time>
      </trkpt>
      <trkpt lat="45.77189" lon="4.63167">
        <ele>711.9936523</ele>
        <time>2011-12-29T14:53:53Z</time>
      </trkpt>
      <trkpt lat="45.77191" lon="4.63148">
        <ele>711.9936523</ele>
        <time>2011-12-29T14:53:56Z</time>
      </trkpt>
      <trkpt lat="45.77184" lon="4.63131">
        <ele>711.0322266</ele>
        <time>2011-12-29T14:54:00Z</time>
      </trkpt>
      <trkpt lat="45.77175" lon="4.63121">
        <ele>710.0708008</ele>
        <time>2011-12-29T14:54:03Z</time>
      </trkpt>
      <trkpt lat="45.77182" lon="4.63102">
        <ele>710.0708008</ele>
        <time>2011-12-29T14:54:07Z</time>
      </trkpt>
      <trkpt lat="45.77209" lon="4.63044">
        <ele>708.6289063</ele>
        <time>2011-12-29T14:54:20Z</time>
      </trkpt>
      <trkpt lat="45.77209" lon="4.63034">
        <ele>707.6677246</ele>
        <time>2011-12-29T14:54:22Z</time>
      </trkpt>
      <trkpt lat="45.77205" lon="4.63023">
        <ele>706.7062988</ele>
        <time>2011-12-29T14:54:24Z</time>
      </trkpt>
      <trkpt lat="45.77164" lon="4.62979">
        <ele>704.7836914</ele>
        <time>2011-12-29T14:54:33Z</time>
      </trkpt>
      <trkpt lat="45.77163" lon="4.62962">
        <ele>703.3417969</ele>
        <time>2011-12-29T14:54:35Z</time>
      </trkpt>
      <trkpt lat="45.77165" lon="4.62919">
        <ele>701.4191895</ele>
        <time>2011-12-29T14:54:40Z</time>
      </trkpt>
      <trkpt lat="45.77156" lon="4.62804">
        <ele>699.015625</ele>
        <time>2011-12-29T14:54:54Z</time>
      </trkpt>
      <trkpt lat="45.77154" lon="4.62784">
        <ele>698.0544434</ele>
        <time>2011-12-29T14:54:56Z</time>
      </trkpt>
      <trkpt lat="45.77138" lon="4.62623">
        <ele>689.4025879</ele>
        <time>2011-12-29T14:55:12Z</time>
      </trkpt>
      <trkpt lat="45.77129" lon="4.62604">
        <ele>686.9992676</ele>
        <time>2011-12-29T14:55:15Z</time>
      </trkpt>
      <trkpt lat="45.77135" lon="4.62518">
        <ele>677.3862305</ele>
        <time>2011-12-29T14:55:25Z</time>
      </trkpt>
      <trkpt lat="45.77141" lon="4.62499">
        <ele>675.4633789</ele>
        <time>2011-12-29T14:55:27Z</time>
      </trkpt>
      <trkpt lat="45.77177" lon="4.62433">
        <ele>669.2150879</ele>
        <time>2011-12-29T14:55:35Z</time>
      </trkpt>
      <trkpt lat="45.77213" lon="4.62401">
        <ele>667.7727051</ele>
        <time>2011-12-29T14:55:42Z</time>
      </trkpt>
      <trkpt lat="45.77224" lon="4.62345">
        <ele>663.4470215</ele>
        <time>2011-12-29T14:55:49Z</time>
      </trkpt>
      <trkpt lat="45.77225" lon="4.62329">
        <ele>662.4855957</ele>
        <time>2011-12-29T14:55:51Z</time>
      </trkpt>
      <trkpt lat="45.77218" lon="4.62168">
        <ele>659.1210938</ele>
        <time>2011-12-29T14:56:09Z</time>
      </trkpt>
      <trkpt lat="45.77219" lon="4.62135">
        <ele>655.7565918</ele>
        <time>2011-12-29T14:56:13Z</time>
      </trkpt>
      <trkpt lat="45.77217" lon="4.62121">
        <ele>653.3532715</ele>
        <time>2011-12-29T14:56:15Z</time>
      </trkpt>
      <trkpt lat="45.77204" lon="4.621">
        <ele>649.9885254</ele>
        <time>2011-12-29T14:56:20Z</time>
      </trkpt>
      <trkpt lat="45.77208" lon="4.62086">
        <ele>646.6240234</ele>
        <time>2011-12-29T14:56:22Z</time>
      </trkpt>
      <trkpt lat="45.77212" lon="4.62075">
        <ele>637.4914551</ele>
        <time>2011-12-29T14:56:32Z</time>
      </trkpt>
      <trkpt lat="45.77216" lon="4.62069">
        <ele>630.762207</ele>
        <time>2011-12-29T14:56:44Z</time>
      </trkpt>
      <trkpt lat="45.77214" lon="4.6206">
        <ele>629.8007813</ele>
        <time>2011-12-29T14:56:46Z</time>
      </trkpt>
      <trkpt lat="45.77226" lon="4.62019">
        <ele>624.9943848</ele>
        <time>2011-12-29T14:56:52Z</time>
      </trkpt>
      <trkpt lat="45.77228" lon="4.62005">
        <ele>623.5524902</ele>
        <time>2011-12-29T14:56:54Z</time>
      </trkpt>
      <trkpt lat="45.77226" lon="4.61987">
        <ele>622.5910645</ele>
        <time>2011-12-29T14:56:56Z</time>
      </trkpt>
      <trkpt lat="45.77219" lon="4.61893">
        <ele>606.729248</ele>
        <time>2011-12-29T14:57:10Z</time>
      </trkpt>
      <trkpt lat="45.7721" lon="4.61841">
        <ele>596.635498</ele>
        <time>2011-12-29T14:57:21Z</time>
      </trkpt>
      <trkpt lat="45.77213" lon="4.61824">
        <ele>593.7514648</ele>
        <time>2011-12-29T14:57:25Z</time>
      </trkpt>
      <trkpt lat="45.7723" lon="4.61793">
        <ele>582.2155762</ele>
        <time>2011-12-29T14:57:36Z</time>
      </trkpt>
      <trkpt lat="45.77232" lon="4.61785">
        <ele>570.1989746</ele>
        <time>2011-12-29T14:58:11Z</time>
      </trkpt>
      <trkpt lat="45.77234" lon="4.61784">
        <ele>569.237793</ele>
        <time>2011-12-29T14:58:12Z</time>
      </trkpt>
      <trkpt lat="45.77269" lon="4.6181">
        <ele>562.9892578</ele>
        <time>2011-12-29T14:58:25Z</time>
      </trkpt>
      <trkpt lat="45.77295" lon="4.61863">
        <ele>558.6633301</ele>
        <time>2011-12-29T14:58:36Z</time>
      </trkpt>
      <trkpt lat="45.77303" lon="4.61875">
        <ele>558.1828613</ele>
        <time>2011-12-29T14:58:38Z</time>
      </trkpt>
      <trkpt lat="45.77342" lon="4.61932">
        <ele>553.8566895</ele>
        <time>2011-12-29T14:58:45Z</time>
      </trkpt>
      <trkpt lat="45.77368" lon="4.6196">
        <ele>552.8952637</ele>
        <time>2011-12-29T14:58:49Z</time>
      </trkpt>
      <trkpt lat="45.77395" lon="4.61985">
        <ele>552.4145508</ele>
        <time>2011-12-29T14:58:53Z</time>
      </trkpt>
      <trkpt lat="45.77415" lon="4.62">
        <ele>550.9726563</ele>
        <time>2011-12-29T14:58:56Z</time>
      </trkpt>
      <trkpt lat="45.77453" lon="4.61994">
        <ele>550.0114746</ele>
        <time>2011-12-29T14:59:01Z</time>
      </trkpt>
      <trkpt lat="45.77468" lon="4.6199">
        <ele>549.5307617</ele>
        <time>2011-12-29T14:59:03Z</time>
      </trkpt>
      <trkpt lat="45.77535" lon="4.61998">
        <ele>540.3983154</ele>
        <time>2011-12-29T14:59:12Z</time>
      </trkpt>
      <trkpt lat="45.77555" lon="4.61997">
        <ele>535.5915527</ele>
        <time>2011-12-29T14:59:20Z</time>
      </trkpt>
      <trkpt lat="45.77571" lon="4.62023">
        <ele>524.0557861</ele>
        <time>2011-12-29T14:59:35Z</time>
      </trkpt>
      <trkpt lat="45.77576" lon="4.62055">
        <ele>521.1719971</ele>
        <time>2011-12-29T14:59:50Z</time>
      </trkpt>
      <trkpt lat="45.77559" lon="4.62098">
        <ele>519.2492676</ele>
        <time>2011-12-29T15:00:05Z</time>
      </trkpt>
      <trkpt lat="45.77547" lon="4.62127">
        <ele>521.1719971</ele>
        <time>2011-12-29T15:00:19Z</time>
      </trkpt>
      <trkpt lat="45.77536" lon="4.62148">
        <ele>532.7077637</ele>
        <time>2011-12-29T15:00:33Z</time>
      </trkpt>
      <trkpt lat="45.77522" lon="4.62188">
        <ele>528.8625488</ele>
        <time>2011-12-29T15:00:56Z</time>
      </trkpt>
      <trkpt lat="45.77517" lon="4.62213">
        <ele>526.4591064</ele>
        <time>2011-12-29T15:01:08Z</time>
      </trkpt>
      <trkpt lat="45.77507" lon="4.62246">
        <ele>528.3818359</ele>
        <time>2011-12-29T15:01:26Z</time>
      </trkpt>
      <trkpt lat="45.77506" lon="4.62254">
        <ele>528.3818359</ele>
        <time>2011-12-29T15:01:30Z</time>
      </trkpt>
      <trkpt lat="45.77498" lon="4.62288">
        <ele>538.9562988</ele>
        <time>2011-12-29T15:01:52Z</time>
      </trkpt>
      <trkpt lat="45.77496" lon="4.62305">
        <ele>544.7242432</ele>
        <time>2011-12-29T15:02:04Z</time>
      </trkpt>
      <trkpt lat="45.77497" lon="4.62356">
        <ele>542.8015137</ele>
        <time>2011-12-29T15:02:29Z</time>
      </trkpt>
      <trkpt lat="45.7751" lon="4.62383">
        <ele>540.3983154</ele>
        <time>2011-12-29T15:02:44Z</time>
      </trkpt>
      <trkpt lat="45.77549" lon="4.62402">
        <ele>532.7077637</ele>
        <time>2011-12-29T15:03:02Z</time>
      </trkpt>
      <trkpt lat="45.77591" lon="4.62433">
        <ele>531.7463379</ele>
        <time>2011-12-29T15:03:19Z</time>
      </trkpt>
      <trkpt lat="45.77627" lon="4.62464">
        <ele>529.8237305</ele>
        <time>2011-12-29T15:03:36Z</time>
      </trkpt>
      <trkpt lat="45.77648" lon="4.62484">
        <ele>532.7077637</ele>
        <time>2011-12-29T15:03:49Z</time>
      </trkpt>
      <trkpt lat="45.77687" lon="4.62537">
        <ele>535.1109619</ele>
        <time>2011-12-29T15:04:08Z</time>
      </trkpt>
      <trkpt lat="45.77737" lon="4.62595">
        <ele>534.6303711</ele>
        <time>2011-12-29T15:04:26Z</time>
      </trkpt>
      <trkpt lat="45.77752" lon="4.62638">
        <ele>530.7851563</ele>
        <time>2011-12-29T15:04:33Z</time>
      </trkpt>
      <trkpt lat="45.77684" lon="4.62899">
        <ele>527.4204102</ele>
        <time>2011-12-29T15:04:55Z</time>
      </trkpt>
      <trkpt lat="45.77662" lon="4.62799">
        <ele>521.6525879</ele>
        <time>2011-12-29T15:05:05Z</time>
      </trkpt>
      <trkpt lat="45.77645" lon="4.62893">
        <ele>529.8237305</ele>
        <time>2011-12-29T15:05:51Z</time>
      </trkpt>
      <trkpt lat="45.77658" lon="4.62925">
        <ele>535.1109619</ele>
        <time>2011-12-29T15:06:14Z</time>
      </trkpt>
      <trkpt lat="45.7767" lon="4.62959">
        <ele>537.9949951</ele>
        <time>2011-12-29T15:06:35Z</time>
      </trkpt>
      <trkpt lat="45.77687" lon="4.62988">
        <ele>546.1662598</ele>
        <time>2011-12-29T15:06:55Z</time>
      </trkpt>
      <trkpt lat="45.77691" lon="4.62997">
        <ele>547.1274414</ele>
        <time>2011-12-29T15:07:02Z</time>
      </trkpt>
      <trkpt lat="45.77702" lon="4.63026">
        <ele>553.8566895</ele>
        <time>2011-12-29T15:07:23Z</time>
      </trkpt>
      <trkpt lat="45.77706" lon="4.63038">
        <ele>554.8178711</ele>
        <time>2011-12-29T15:07:31Z</time>
      </trkpt>
      <trkpt lat="45.77711" lon="4.63065">
        <ele>557.7021484</ele>
        <time>2011-12-29T15:07:48Z</time>
      </trkpt>
      <trkpt lat="45.77714" lon="4.63088">
        <ele>564.4311523</ele>
        <time>2011-12-29T15:08:05Z</time>
      </trkpt>
      <trkpt lat="45.77718" lon="4.63104">
        <ele>572.6025391</ele>
        <time>2011-12-29T15:08:20Z</time>
      </trkpt>
      <trkpt lat="45.77718" lon="4.63126">
        <ele>573.083252</ele>
        <time>2011-12-29T15:08:32Z</time>
      </trkpt>
      <trkpt lat="45.77719" lon="4.63161">
        <ele>575.967041</ele>
        <time>2011-12-29T15:08:49Z</time>
      </trkpt>
      <trkpt lat="45.77718" lon="4.63199">
        <ele>578.3703613</ele>
        <time>2011-12-29T15:09:08Z</time>
      </trkpt>
      <trkpt lat="45.77711" lon="4.63231">
        <ele>580.2929688</ele>
        <time>2011-12-29T15:09:24Z</time>
      </trkpt>
      <trkpt lat="45.77696" lon="4.63268">
        <ele>581.7348633</ele>
        <time>2011-12-29T15:09:41Z</time>
      </trkpt>
      <trkpt lat="45.77671" lon="4.63304">
        <ele>583.6574707</ele>
        <time>2011-12-29T15:09:59Z</time>
      </trkpt>
      <trkpt lat="45.77621" lon="4.63348">
        <ele>585.5800781</ele>
        <time>2011-12-29T15:10:20Z</time>
      </trkpt>
      <trkpt lat="45.77593" lon="4.63362">
        <ele>589.4255371</ele>
        <time>2011-12-29T15:10:38Z</time>
      </trkpt>
      <trkpt lat="45.77574" lon="4.63368">
        <ele>589.4255371</ele>
        <time>2011-12-29T15:10:50Z</time>
      </trkpt>
      <trkpt lat="45.77569" lon="4.63379">
        <ele>591.8288574</ele>
        <time>2011-12-29T15:11:01Z</time>
      </trkpt>
      <trkpt lat="45.77541" lon="4.63401">
        <ele>594.2321777</ele>
        <time>2011-12-29T15:11:19Z</time>
      </trkpt>
      <trkpt lat="45.77521" lon="4.63444">
        <ele>595.1933594</ele>
        <time>2011-12-29T15:11:36Z</time>
      </trkpt>
      <trkpt lat="45.77528" lon="4.63491">
        <ele>597.1159668</ele>
        <time>2011-12-29T15:11:54Z</time>
      </trkpt>
      <trkpt lat="45.77533" lon="4.63544">
        <ele>596.635498</ele>
        <time>2011-12-29T15:12:14Z</time>
      </trkpt>
      <trkpt lat="45.77541" lon="4.6358">
        <ele>599.5192871</ele>
        <time>2011-12-29T15:12:27Z</time>
      </trkpt>
      <trkpt lat="45.77553" lon="4.63648">
        <ele>600.4807129</ele>
        <time>2011-12-29T15:12:48Z</time>
      </trkpt>
      <trkpt lat="45.77564" lon="4.63706">
        <ele>603.364502</ele>
        <time>2011-12-29T15:13:11Z</time>
      </trkpt>
      <trkpt lat="45.77569" lon="4.6376">
        <ele>605.7680664</ele>
        <time>2011-12-29T15:13:32Z</time>
      </trkpt>
      <trkpt lat="45.77582" lon="4.63804">
        <ele>606.729248</ele>
        <time>2011-12-29T15:13:49Z</time>
      </trkpt>
      <trkpt lat="45.77584" lon="4.63825">
        <ele>608.6518555</ele>
        <time>2011-12-29T15:13:58Z</time>
      </trkpt>
      <trkpt lat="45.77585" lon="4.63833">
        <ele>609.6132813</ele>
        <time>2011-12-29T15:14:02Z</time>
      </trkpt>
      <trkpt lat="45.77587" lon="4.63839">
        <ele>614.4196777</ele>
        <time>2011-12-29T15:14:22Z</time>
      </trkpt>
      <trkpt lat="45.77593" lon="4.63849">
        <ele>612.9777832</ele>
        <time>2011-12-29T15:15:55Z</time>
      </trkpt>
      <trkpt lat="45.77584" lon="4.63845">
        <ele>608.6518555</ele>
        <time>2011-12-29T15:16:27Z</time>
      </trkpt>
      <trkpt lat="45.77583" lon="4.63846">
        <ele>610.5744629</ele>
        <time>2011-12-29T15:16:50Z</time>
      </trkpt>
      <trkpt lat="45.77582" lon="4.63857">
        <ele>609.1325684</ele>
        <time>2011-12-29T15:17:26Z</time>
      </trkpt>
      <trkpt lat="45.77581" lon="4.6386">
        <ele>605.7680664</ele>
        <time>2011-12-29T15:21:41Z</time>
      </trkpt>
      <trkpt lat="45.77586" lon="4.63858">
        <ele>609.1325684</ele>
        <time>2011-12-29T15:21:47Z</time>
      </trkpt>
      <trkpt lat="45.7757" lon="4.63899">
        <ele>609.1325684</ele>
        <time>2011-12-29T15:22:02Z</time>
      </trkpt>
      <trkpt lat="45.77545" lon="4.63937">
        <ele>611.5358887</ele>
        <time>2011-12-29T15:22:14Z</time>
      </trkpt>
      <trkpt lat="45.77524" lon="4.6394">
        <ele>611.5358887</ele>
        <time>2011-12-29T15:22:18Z</time>
      </trkpt>
      <trkpt lat="45.77509" lon="4.6395">
        <ele>611.0551758</ele>
        <time>2011-12-29T15:22:21Z</time>
      </trkpt>
      <trkpt lat="45.77476" lon="4.63968">
        <ele>610.5744629</ele>
        <time>2011-12-29T15:22:29Z</time>
      </trkpt>
      <trkpt lat="45.77421" lon="4.64019">
        <ele>610.5744629</ele>
        <time>2011-12-29T15:22:47Z</time>
      </trkpt>
      <trkpt lat="45.77419" lon="4.64023">
        <ele>610.5744629</ele>
        <time>2011-12-29T15:22:50Z</time>
      </trkpt>
      <trkpt lat="45.77405" lon="4.64056">
        <ele>613.4584961</ele>
        <time>2011-12-29T15:22:58Z</time>
      </trkpt>
      <trkpt lat="45.77403" lon="4.6406">
        <ele>613.9389648</ele>
        <time>2011-12-29T15:22:59Z</time>
      </trkpt>
      <trkpt lat="45.77382" lon="4.64114">
        <ele>616.3422852</ele>
        <time>2011-12-29T15:23:11Z</time>
      </trkpt>
      <trkpt lat="45.77243" lon="4.6419">
        <ele>624.032959</ele>
        <time>2011-12-29T15:23:35Z</time>
      </trkpt>
      <trkpt lat="45.77122" lon="4.64167">
        <ele>618.2648926</ele>
        <time>2011-12-29T15:24:08Z</time>
      </trkpt>
      <trkpt lat="45.77115" lon="4.64214">
        <ele>618.7456055</ele>
        <time>2011-12-29T15:24:14Z</time>
      </trkpt>
      <trkpt lat="45.77105" lon="4.64246">
        <ele>619.2263184</ele>
        <time>2011-12-29T15:24:20Z</time>
      </trkpt>
      <trkpt lat="45.771" lon="4.64286">
        <ele>619.2263184</ele>
        <time>2011-12-29T15:24:27Z</time>
      </trkpt>
      <trkpt lat="45.77098" lon="4.64423">
        <ele>617.3037109</ele>
        <time>2011-12-29T15:24:39Z</time>
      </trkpt>
      <trkpt lat="45.76954" lon="4.64734">
        <ele>600.4807129</ele>
        <time>2011-12-29T15:25:17Z</time>
      </trkpt>
      <trkpt lat="45.76959" lon="4.648">
        <ele>589.90625</ele>
        <time>2011-12-29T15:25:24Z</time>
      </trkpt>
      <trkpt lat="45.76964" lon="4.64832">
        <ele>518.2878418</ele>
        <time>2011-12-29T15:25:27Z</time>
      </trkpt>
      <trkpt lat="45.76967" lon="4.64854">
        <ele>517.807251</ele>
        <time>2011-12-29T15:25:31Z</time>
      </trkpt>
      <trkpt lat="45.76969" lon="4.64873">
        <ele>518.2878418</ele>
        <time>2011-12-29T15:25:36Z</time>
      </trkpt>
      <trkpt lat="45.76969" lon="4.64873">
        <ele>519.2492676</ele>
        <time>2011-12-29T15:25:54Z</time>
      </trkpt>
      <trkpt lat="45.76969" lon="4.64873">
        <ele>522.1331787</ele>
        <time>2011-12-29T15:25:59Z</time>
      </trkpt>
      <trkpt lat="45.76972" lon="4.64886">
        <ele>521.6525879</ele>
        <time>2011-12-29T15:26:02Z</time>
      </trkpt>
      <trkpt lat="45.76976" lon="4.649">
        <ele>521.1719971</ele>
        <time>2011-12-29T15:26:04Z</time>
      </trkpt>
      <trkpt lat="45.76991" lon="4.64946">
        <ele>517.807251</ele>
        <time>2011-12-29T15:26:11Z</time>
      </trkpt>
      <trkpt lat="45.76994" lon="4.64955">
        <ele>517.3266602</ele>
        <time>2011-12-29T15:26:13Z</time>
      </trkpt>
      <trkpt lat="45.76981" lon="4.64993">
        <ele>514.9233398</ele>
        <time>2011-12-29T15:26:20Z</time>
      </trkpt>
      <trkpt lat="45.76964" lon="4.64996">
        <ele>513.4814453</ele>
        <time>2011-12-29T15:26:23Z</time>
      </trkpt>
      <trkpt lat="45.76955" lon="4.6499">
        <ele>513.0007324</ele>
        <time>2011-12-29T15:26:25Z</time>
      </trkpt>
      <trkpt lat="45.76935" lon="4.64978">
        <ele>506.2714844</ele>
        <time>2011-12-29T15:26:29Z</time>
      </trkpt>
      <trkpt lat="45.76897" lon="4.64975">
        <ele>499.0615234</ele>
        <time>2011-12-29T15:26:35Z</time>
      </trkpt>
      <trkpt lat="45.7689" lon="4.64978">
        <ele>497.6196289</ele>
        <time>2011-12-29T15:26:36Z</time>
      </trkpt>
      <trkpt lat="45.76876" lon="4.6499">
        <ele>496.1777344</ele>
        <time>2011-12-29T15:26:38Z</time>
      </trkpt>
      <trkpt lat="45.76828" lon="4.65034">
        <ele>492.3323975</ele>
        <time>2011-12-29T15:26:44Z</time>
      </trkpt>
      <trkpt lat="45.76788" lon="4.6505">
        <ele>490.8903809</ele>
        <time>2011-12-29T15:26:49Z</time>
      </trkpt>
      <trkpt lat="45.7671" lon="4.65091">
        <ele>489.9290771</ele>
        <time>2011-12-29T15:27:03Z</time>
      </trkpt>
      <trkpt lat="45.76697" lon="4.65116">
        <ele>489.9290771</ele>
        <time>2011-12-29T15:27:11Z</time>
      </trkpt>
      <trkpt lat="45.76687" lon="4.65136">
        <ele>489.4483643</ele>
        <time>2011-12-29T15:27:19Z</time>
      </trkpt>
      <trkpt lat="45.76677" lon="4.65155">
        <ele>487.5256348</ele>
        <time>2011-12-29T15:27:23Z</time>
      </trkpt>
      <trkpt lat="45.76674" lon="4.65161">
        <ele>487.0450439</ele>
        <time>2011-12-29T15:27:25Z</time>
      </trkpt>
      <trkpt lat="45.76666" lon="4.65176">
        <ele>485.6030273</ele>
        <time>2011-12-29T15:27:31Z</time>
      </trkpt>
      <trkpt lat="45.7667" lon="4.65271">
        <ele>479.3544922</ele>
        <time>2011-12-29T15:27:46Z</time>
      </trkpt>
      <trkpt lat="45.76662" lon="4.65394">
        <ele>475.0286865</ele>
        <time>2011-12-29T15:28:02Z</time>
      </trkpt>
      <trkpt lat="45.76633" lon="4.6549">
        <ele>473.1060791</ele>
        <time>2011-12-29T15:28:17Z</time>
      </trkpt>
      <trkpt lat="45.76642" lon="4.65536">
        <ele>474.0672607</ele>
        <time>2011-12-29T15:28:25Z</time>
      </trkpt>
      <trkpt lat="45.76657" lon="4.65631">
        <ele>475.0286865</ele>
        <time>2011-12-29T15:28:42Z</time>
      </trkpt>
      <trkpt lat="45.76673" lon="4.65734">
        <ele>468.2993164</ele>
        <time>2011-12-29T15:28:55Z</time>
      </trkpt>
      <trkpt lat="45.7669" lon="4.65849">
        <ele>459.1668701</ele>
        <time>2011-12-29T15:29:06Z</time>
      </trkpt>
      <trkpt lat="45.76683" lon="4.65906">
        <ele>452.9182129</ele>
        <time>2011-12-29T15:29:19Z</time>
      </trkpt>
      <trkpt lat="45.76668" lon="4.65944">
        <ele>449.072998</ele>
        <time>2011-12-29T15:29:29Z</time>
      </trkpt>
      <trkpt lat="45.76671" lon="4.65959">
        <ele>448.1118164</ele>
        <time>2011-12-29T15:29:33Z</time>
      </trkpt>
      <trkpt lat="45.76672" lon="4.65967">
        <ele>446.6696777</ele>
        <time>2011-12-29T15:29:35Z</time>
      </trkpt>
      <trkpt lat="45.7665" lon="4.65989">
        <ele>442.3438721</ele>
        <time>2011-12-29T15:29:40Z</time>
      </trkpt>
      <trkpt lat="45.76588" lon="4.6598">
        <ele>436.5759277</ele>
        <time>2011-12-29T15:29:54Z</time>
      </trkpt>
      <trkpt lat="45.76567" lon="4.65983">
        <ele>435.1339111</ele>
        <time>2011-12-29T15:29:59Z</time>
      </trkpt>
      <trkpt lat="45.76548" lon="4.65986">
        <ele>432.25</ele>
        <time>2011-12-29T15:30:07Z</time>
      </trkpt>
      <trkpt lat="45.76542" lon="4.65987">
        <ele>430.8079834</ele>
        <time>2011-12-29T15:30:15Z</time>
      </trkpt>
      <trkpt lat="45.76542" lon="4.65987">
        <ele>430.3272705</ele>
        <time>2011-12-29T15:30:28Z</time>
      </trkpt>
      <trkpt lat="45.76542" lon="4.65987">
        <ele>431.2885742</ele>
        <time>2011-12-29T15:30:45Z</time>
      </trkpt>
    </trkseg>
  </trk>
</gpx>